PTI737 OMDB-YMML
Flight info
| Callsign | PTI737 |
|---|---|
| Flight time | N/A |
| Altitude | 35000 |
| Route | ANVIX L223 TARDI N629 GIDAN P570 EMURU M300 VASTU P895 BIKOK M641 KAT N640 ELATI DCT 0800S09530E 14S102E 17S106E 19S109E 21S112E DCT LM DCT 25S117E DCT LST DCT 29S123E 31S127E 33S132E DCT KAMBI N640 AD V255 BENDO Y12 ARBEY |
| Aircraft | B737/M-SDE2E3FGHIRWXY/LB1 |
Departure
| Time | N/A |
|---|---|
| Airport | Dubai International Airport (OMDB) |
Arrival
| Time | 2026-05-04 04:52 |
|---|---|
| Airport | Melbourne Airport (YMML) |
| Time | Latitude | Longitude | Altitude | Speed | Heading |
|---|---|---|---|---|---|
| 2026-05-03 20:15 | -2.60087 | 90.51107 | 34864 ft | 426 kts | 136° |
| 2026-05-03 20:15 | -2.64457 | 90.55104 | 34867 ft | 426 kts | 136° |
| 2026-05-03 20:16 | -2.68831 | 90.59104 | 34860 ft | 426 kts | 136° |
| 2026-05-03 20:16 | -2.73212 | 90.63112 | 34867 ft | 427 kts | 136° |
| 2026-05-03 20:17 | -2.77599 | 90.67126 | 34865 ft | 428 kts | 136° |
| 2026-05-03 20:17 | -2.81996 | 90.71149 | 34868 ft | 429 kts | 136° |
| 2026-05-03 20:18 | -2.86399 | 90.75177 | 34869 ft | 429 kts | 136° |
| 2026-05-03 20:18 | -2.90812 | 90.79216 | 34868 ft | 430 kts | 137° |
| 2026-05-03 20:19 | -2.95228 | 90.83257 | 34869 ft | 431 kts | 137° |
| 2026-05-03 20:19 | -2.99652 | 90.87306 | 34869 ft | 431 kts | 137° |
| 2026-05-03 20:20 | -3.04078 | 90.91359 | 34866 ft | 431 kts | 137° |
| 2026-05-03 20:20 | -3.08506 | 90.95412 | 34863 ft | 432 kts | 137° |
| 2026-05-03 20:21 | -3.12938 | 90.99471 | 34870 ft | 432 kts | 137° |
| 2026-05-03 20:21 | -3.17368 | 91.03527 | 34869 ft | 432 kts | 137° |
| 2026-05-03 20:22 | -3.21804 | 91.07590 | 34875 ft | 432 kts | 137° |
| 2026-05-03 20:22 | -3.26236 | 91.11650 | 34873 ft | 432 kts | 137° |
| 2026-05-03 20:23 | -3.30668 | 91.15710 | 34870 ft | 432 kts | 136° |
| 2026-05-03 20:23 | -3.35092 | 91.19763 | 34869 ft | 431 kts | 136° |
| 2026-05-03 20:24 | -3.39509 | 91.23810 | 34873 ft | 430 kts | 136° |
| 2026-05-03 20:24 | -3.43915 | 91.27848 | 34873 ft | 429 kts | 136° |
| 2026-05-03 20:25 | -3.48315 | 91.31881 | 34877 ft | 429 kts | 136° |
| 2026-05-03 20:25 | -3.52712 | 91.35912 | 34873 ft | 428 kts | 136° |
| 2026-05-03 20:26 | -3.57108 | 91.39942 | 34875 ft | 428 kts | 136° |
| 2026-05-03 20:26 | -3.61503 | 91.43972 | 34874 ft | 429 kts | 136° |
| 2026-05-03 20:27 | -3.65900 | 91.48004 | 34869 ft | 429 kts | 136° |
| 2026-05-03 20:27 | -3.70299 | 91.52039 | 34872 ft | 429 kts | 136° |
| 2026-05-03 20:28 | -3.74697 | 91.56073 | 34878 ft | 429 kts | 136° |
| 2026-05-03 20:28 | -3.79093 | 91.60106 | 34872 ft | 428 kts | 136° |
| 2026-05-03 20:29 | -3.83487 | 91.64139 | 34868 ft | 428 kts | 137° |
| 2026-05-03 20:29 | -3.87878 | 91.68168 | 34876 ft | 428 kts | 137° |
| 2026-05-03 20:30 | -3.92271 | 91.72200 | 34874 ft | 428 kts | 137° |
| 2026-05-03 20:30 | -3.96661 | 91.76231 | 34878 ft | 428 kts | 137° |
| 2026-05-03 20:31 | -4.01057 | 91.80266 | 34877 ft | 429 kts | 137° |
| 2026-05-03 20:31 | -4.05455 | 91.84305 | 34877 ft | 429 kts | 137° |
| 2026-05-03 20:32 | -4.09853 | 91.88344 | 34880 ft | 429 kts | 137° |
| 2026-05-03 20:32 | -4.14253 | 91.92386 | 34878 ft | 429 kts | 136° |
| 2026-05-03 20:33 | -4.18650 | 91.96426 | 34872 ft | 429 kts | 136° |
| 2026-05-03 20:33 | -4.23046 | 92.00465 | 34868 ft | 429 kts | 136° |
| 2026-05-03 20:34 | -4.27443 | 92.04506 | 34876 ft | 429 kts | 136° |
| 2026-05-03 20:34 | -4.31843 | 92.08549 | 34875 ft | 430 kts | 136° |
| 2026-05-03 20:35 | -4.36250 | 92.12601 | 34877 ft | 430 kts | 136° |
| 2026-05-03 20:35 | -4.40663 | 92.16658 | 34874 ft | 431 kts | 136° |
| 2026-05-03 20:36 | -4.45076 | 92.20717 | 34877 ft | 431 kts | 136° |
| 2026-05-03 20:36 | -4.49496 | 92.24781 | 34877 ft | 431 kts | 136° |
| 2026-05-03 20:37 | -4.53911 | 92.28843 | 34874 ft | 431 kts | 136° |
| 2026-05-03 20:37 | -4.58325 | 92.32905 | 34875 ft | 431 kts | 136° |
| 2026-05-03 20:38 | -4.62738 | 92.36966 | 34872 ft | 431 kts | 136° |
| 2026-05-03 20:38 | -4.67152 | 92.41028 | 34875 ft | 431 kts | 136° |
| 2026-05-03 20:39 | -4.71566 | 92.45091 | 34874 ft | 431 kts | 136° |
| 2026-05-03 20:39 | -4.75982 | 92.49157 | 34874 ft | 431 kts | 136° |
| 2026-05-03 20:40 | -4.80397 | 92.53223 | 34879 ft | 431 kts | 136° |
| 2026-05-03 20:40 | -4.84785 | 92.57265 | 34876 ft | 431 kts | 136° |
| 2026-05-03 20:41 | -4.89205 | 92.61337 | 34880 ft | 431 kts | 136° |
| 2026-05-03 20:41 | -4.93622 | 92.65406 | 34879 ft | 431 kts | 136° |
| 2026-05-03 20:42 | -4.98038 | 92.69476 | 34878 ft | 431 kts | 136° |
| 2026-05-03 20:42 | -5.01731 | 92.72880 | 34875 ft | 430 kts | 136° |
| 2026-05-03 20:43 | -5.06138 | 92.76943 | 34879 ft | 430 kts | 136° |
| 2026-05-03 20:43 | -5.10535 | 92.80998 | 34875 ft | 429 kts | 136° |
| 2026-05-03 20:44 | -5.14929 | 92.85050 | 34877 ft | 429 kts | 136° |
| 2026-05-03 20:44 | -5.19318 | 92.89099 | 34877 ft | 429 kts | 136° |
| 2026-05-03 20:45 | -5.23706 | 92.93148 | 34877 ft | 429 kts | 136° |
| 2026-05-03 20:45 | -5.28095 | 92.97198 | 34877 ft | 429 kts | 136° |
| 2026-05-03 20:46 | -5.32483 | 93.01248 | 34878 ft | 429 kts | 136° |
| 2026-05-03 20:46 | -5.36873 | 93.05301 | 34881 ft | 429 kts | 135° |
| 2026-05-03 20:47 | -5.41264 | 93.09356 | 34882 ft | 429 kts | 136° |
| 2026-05-03 20:47 | -5.45659 | 93.13414 | 34883 ft | 429 kts | 136° |
| 2026-05-03 20:48 | -5.50056 | 93.17477 | 34882 ft | 430 kts | 136° |
| 2026-05-03 20:48 | -5.54455 | 93.21541 | 34879 ft | 430 kts | 136° |
| 2026-05-03 20:49 | -5.58857 | 93.25609 | 34877 ft | 430 kts | 136° |
| 2026-05-03 20:49 | -5.63254 | 93.29674 | 34880 ft | 430 kts | 136° |
| 2026-05-03 20:50 | -5.67650 | 93.33737 | 34879 ft | 430 kts | 136° |
| 2026-05-03 20:50 | -5.72045 | 93.37803 | 34885 ft | 429 kts | 136° |
| 2026-05-03 20:51 | -5.76432 | 93.41860 | 34878 ft | 428 kts | 136° |
| 2026-05-03 20:51 | -5.80781 | 93.45883 | 34878 ft | 427 kts | 136° |
| 2026-05-03 20:52 | -5.85147 | 93.49923 | 34876 ft | 426 kts | 136° |
| 2026-05-03 20:52 | -5.89505 | 93.53957 | 34880 ft | 426 kts | 136° |
| 2026-05-03 20:53 | -5.93885 | 93.58012 | 34878 ft | 426 kts | 136° |
| 2026-05-03 20:53 | -5.98238 | 93.62043 | 34881 ft | 426 kts | 136° |
| 2026-05-03 20:54 | -6.02597 | 93.66080 | 34884 ft | 426 kts | 136° |
| 2026-05-03 20:54 | -6.09136 | 93.72138 | 34882 ft | 427 kts | 136° |
| 2026-05-03 20:55 | -6.13500 | 93.76183 | 34883 ft | 427 kts | 136° |
| 2026-05-03 20:55 | -6.17869 | 93.80233 | 34889 ft | 427 kts | 136° |
| 2026-05-03 20:56 | -6.22216 | 93.84263 | 34880 ft | 428 kts | 136° |
| 2026-05-03 20:56 | -6.26628 | 93.88355 | 34888 ft | 429 kts | 136° |
| 2026-05-03 20:57 | -6.31017 | 93.92426 | 34882 ft | 430 kts | 136° |
| 2026-05-03 20:57 | -6.35416 | 93.96508 | 34884 ft | 430 kts | 136° |
| 2026-05-03 20:58 | -6.39816 | 94.00591 | 34881 ft | 431 kts | 136° |
| 2026-05-03 20:58 | -6.44218 | 94.04677 | 34883 ft | 430 kts | 136° |
| 2026-05-03 20:59 | -6.48618 | 94.08763 | 34875 ft | 431 kts | 136° |
| 2026-05-03 20:59 | -6.53023 | 94.12854 | 34889 ft | 431 kts | 136° |
| 2026-05-03 21:00 | -6.56690 | 94.16260 | 34885 ft | 432 kts | 136° |
| 2026-05-03 21:00 | -6.61859 | 94.21064 | 34897 ft | 433 kts | 136° |
| 2026-05-03 21:01 | -6.66252 | 94.25146 | 34886 ft | 433 kts | 136° |
| 2026-05-03 21:01 | -6.70665 | 94.29249 | 34882 ft | 431 kts | 136° |
| 2026-05-03 21:02 | -6.75092 | 94.33366 | 34881 ft | 430 kts | 136° |
| 2026-05-03 21:02 | -6.79479 | 94.37447 | 34884 ft | 429 kts | 136° |
| 2026-05-03 21:03 | -6.83855 | 94.41518 | 34877 ft | 429 kts | 136° |
| 2026-05-03 21:03 | -6.88238 | 94.45597 | 34889 ft | 430 kts | 136° |
| 2026-05-03 21:04 | -6.92635 | 94.49690 | 34886 ft | 431 kts | 136° |
| 2026-05-03 21:04 | -6.97049 | 94.53801 | 34889 ft | 433 kts | 136° |
| 2026-05-03 21:05 | -7.01481 | 94.57928 | 34894 ft | 435 kts | 136° |
| 2026-05-03 21:05 | -7.05929 | 94.62072 | 34889 ft | 436 kts | 136° |
| 2026-05-03 21:06 | -7.10385 | 94.66226 | 34881 ft | 437 kts | 136° |
| 2026-05-03 21:06 | -7.14849 | 94.70387 | 34882 ft | 437 kts | 136° |
| 2026-05-03 21:07 | -7.19307 | 94.74543 | 34881 ft | 436 kts | 136° |
| 2026-05-03 21:07 | -7.23751 | 94.78688 | 34882 ft | 435 kts | 136° |
| 2026-05-03 21:08 | -7.28182 | 94.82822 | 34881 ft | 433 kts | 136° |
| 2026-05-03 21:08 | -7.32600 | 94.86945 | 34881 ft | 432 kts | 136° |
| 2026-05-03 21:09 | -7.37010 | 94.91061 | 34885 ft | 432 kts | 136° |
| 2026-05-03 21:09 | -7.41416 | 94.95176 | 34886 ft | 432 kts | 136° |
| 2026-05-03 21:10 | -7.45825 | 94.99294 | 34885 ft | 433 kts | 136° |
| 2026-05-03 21:10 | -7.50243 | 95.03421 | 34887 ft | 433 kts | 136° |
| 2026-05-03 21:11 | -7.54665 | 95.07554 | 34884 ft | 434 kts | 136° |
| 2026-05-03 21:11 | -7.59098 | 95.11699 | 34876 ft | 435 kts | 136° |
| 2026-05-03 21:12 | -7.63538 | 95.15851 | 34886 ft | 436 kts | 136° |
| 2026-05-03 21:12 | -7.67990 | 95.20015 | 34883 ft | 437 kts | 136° |
| 2026-05-03 21:13 | -7.72444 | 95.24183 | 34884 ft | 437 kts | 136° |
| 2026-05-03 21:13 | -7.76900 | 95.28354 | 34881 ft | 437 kts | 136° |
| 2026-05-03 21:14 | -7.81353 | 95.32523 | 34883 ft | 437 kts | 136° |
| 2026-05-03 21:14 | -7.85800 | 95.36688 | 34883 ft | 436 kts | 136° |
| 2026-05-03 21:15 | -7.90238 | 95.40846 | 34882 ft | 435 kts | 136° |
| 2026-05-03 21:15 | -7.94662 | 95.44993 | 34883 ft | 434 kts | 136° |
| 2026-05-03 21:16 | -7.99087 | 95.49141 | 34886 ft | 434 kts | 136° |
| 2026-05-03 21:16 | -8.03381 | 95.53416 | 34887 ft | 434 kts | 133° |
| 2026-05-03 21:17 | -8.06839 | 95.57091 | 34884 ft | 434 kts | 132° |
| 2026-05-03 21:17 | -8.11692 | 95.62273 | 34883 ft | 435 kts | 133° |
| 2026-05-03 21:18 | -8.15865 | 95.66695 | 34882 ft | 435 kts | 133° |
| 2026-05-03 21:18 | -8.20056 | 95.71117 | 34885 ft | 436 kts | 133° |
| 2026-05-03 21:19 | -8.24221 | 95.75507 | 34882 ft | 436 kts | 133° |
| 2026-05-03 21:19 | -8.28415 | 95.79929 | 34882 ft | 436 kts | 133° |
| 2026-05-03 21:20 | -8.32606 | 95.84350 | 34877 ft | 436 kts | 133° |
| 2026-05-03 21:20 | -8.36802 | 95.88777 | 34884 ft | 436 kts | 133° |
| 2026-05-03 21:21 | -8.40998 | 95.93206 | 34884 ft | 437 kts | 133° |
| 2026-05-03 21:21 | -8.45196 | 95.97639 | 34879 ft | 437 kts | 133° |
| 2026-05-03 21:22 | -8.49395 | 96.02074 | 34879 ft | 437 kts | 133° |
| 2026-05-03 21:22 | -8.53594 | 96.06511 | 34880 ft | 437 kts | 133° |
| 2026-05-03 21:23 | -8.57795 | 96.10952 | 34883 ft | 437 kts | 133° |
| 2026-05-03 21:23 | -8.61991 | 96.15389 | 34882 ft | 437 kts | 133° |
| 2026-05-03 21:24 | -8.65506 | 96.19106 | 34882 ft | 437 kts | 133° |
| 2026-05-03 21:24 | -8.69702 | 96.23546 | 34873 ft | 437 kts | 133° |
| 2026-05-03 21:25 | -8.73901 | 96.27990 | 34884 ft | 437 kts | 133° |
| 2026-05-03 21:25 | -8.78103 | 96.32440 | 34883 ft | 438 kts | 133° |
| 2026-05-03 21:26 | -8.82312 | 96.36898 | 34884 ft | 439 kts | 133° |
| 2026-05-03 21:26 | -8.86527 | 96.41364 | 34882 ft | 439 kts | 133° |
| 2026-05-03 21:27 | -8.90742 | 96.45830 | 34884 ft | 439 kts | 133° |
| 2026-05-03 21:27 | -8.94957 | 96.50301 | 34886 ft | 439 kts | 133° |
| 2026-05-03 21:28 | -8.99167 | 96.54765 | 34881 ft | 438 kts | 133° |
| 2026-05-03 21:28 | -9.03339 | 96.59191 | 34883 ft | 437 kts | 133° |
| 2026-05-03 21:29 | -9.07534 | 96.63644 | 34879 ft | 437 kts | 133° |
| 2026-05-03 21:29 | -9.11725 | 96.68094 | 34883 ft | 437 kts | 133° |
| 2026-05-03 21:30 | -9.15918 | 96.72549 | 34882 ft | 437 kts | 133° |
| 2026-05-03 21:30 | -9.20113 | 96.77006 | 34886 ft | 437 kts | 133° |
| 2026-05-03 21:31 | -9.24310 | 96.81467 | 34888 ft | 438 kts | 133° |
| 2026-05-03 21:31 | -9.28510 | 96.85934 | 34881 ft | 438 kts | 133° |
| 2026-05-03 21:32 | -9.32715 | 96.90407 | 34886 ft | 438 kts | 133° |
| 2026-05-03 21:32 | -9.36918 | 96.94880 | 34885 ft | 439 kts | 133° |
| 2026-05-03 21:33 | -9.41124 | 96.99357 | 34880 ft | 439 kts | 133° |
| 2026-05-03 21:33 | -9.45331 | 97.03838 | 34882 ft | 439 kts | 133° |
| 2026-05-03 21:34 | -9.49540 | 97.08321 | 34882 ft | 439 kts | 133° |
| 2026-05-03 21:34 | -9.53749 | 97.12807 | 34881 ft | 439 kts | 133° |
| 2026-05-03 21:35 | -9.57954 | 97.17291 | 34884 ft | 439 kts | 133° |
| 2026-05-03 21:35 | -9.62159 | 97.21775 | 34881 ft | 439 kts | 133° |
| 2026-05-03 21:36 | -9.66362 | 97.26260 | 34886 ft | 439 kts | 133° |
| 2026-05-03 21:36 | -9.70562 | 97.30743 | 34885 ft | 438 kts | 133° |
| 2026-05-03 21:37 | -9.74762 | 97.35228 | 34886 ft | 438 kts | 133° |
| 2026-05-03 21:37 | -9.78957 | 97.39709 | 34878 ft | 438 kts | 133° |
| 2026-05-03 21:38 | -9.83156 | 97.44197 | 34890 ft | 439 kts | 133° |
| 2026-05-03 21:38 | -9.87360 | 97.48691 | 34882 ft | 440 kts | 133° |
| 2026-05-03 21:39 | -9.91572 | 97.53197 | 34890 ft | 441 kts | 133° |
| 2026-05-03 21:39 | -9.95792 | 97.57712 | 34887 ft | 441 kts | 133° |
| 2026-05-03 21:40 | -10.00017 | 97.62234 | 34882 ft | 441 kts | 133° |
| 2026-05-03 21:40 | -10.04237 | 97.66752 | 34884 ft | 441 kts | 133° |
| 2026-05-03 21:41 | -10.08448 | 97.71264 | 34884 ft | 440 kts | 133° |
| 2026-05-03 21:41 | -10.12655 | 97.75772 | 34885 ft | 440 kts | 133° |
| 2026-05-03 21:42 | -10.16859 | 97.80280 | 34887 ft | 439 kts | 133° |
| 2026-05-03 21:42 | -10.21060 | 97.84785 | 34884 ft | 440 kts | 133° |
| 2026-05-03 21:43 | -10.25264 | 97.89296 | 34886 ft | 440 kts | 133° |
| 2026-05-03 21:43 | -10.29468 | 97.93809 | 34885 ft | 440 kts | 133° |
| 2026-05-03 21:44 | -10.33677 | 97.98329 | 34887 ft | 441 kts | 133° |
| 2026-05-03 21:44 | -10.37891 | 98.02856 | 34889 ft | 441 kts | 133° |
| 2026-05-03 21:45 | -10.42104 | 98.07385 | 34888 ft | 441 kts | 133° |
| 2026-05-03 21:45 | -10.46325 | 98.11923 | 34888 ft | 442 kts | 133° |
| 2026-05-03 21:46 | -10.50544 | 98.16462 | 34886 ft | 442 kts | 133° |
| 2026-05-03 21:46 | -10.54769 | 98.21008 | 34893 ft | 443 kts | 133° |
| 2026-05-03 21:47 | -10.58997 | 98.25560 | 34891 ft | 443 kts | 133° |
| 2026-05-03 21:47 | -10.63228 | 98.30117 | 34894 ft | 443 kts | 133° |
| 2026-05-03 21:48 | -10.67459 | 98.34676 | 34889 ft | 443 kts | 133° |
| 2026-05-03 21:48 | -10.71690 | 98.39237 | 34891 ft | 443 kts | 133° |
| 2026-05-03 21:49 | -10.75917 | 98.43796 | 34893 ft | 443 kts | 133° |
| 2026-05-03 21:49 | -10.80141 | 98.48354 | 34893 ft | 443 kts | 133° |
| 2026-05-03 21:50 | -10.84364 | 98.52912 | 34892 ft | 442 kts | 133° |
| 2026-05-03 21:50 | -10.88554 | 98.57437 | 34893 ft | 442 kts | 133° |
| 2026-05-03 21:51 | -10.92796 | 98.62020 | 34894 ft | 442 kts | 133° |
| 2026-05-03 21:51 | -10.97009 | 98.66573 | 34893 ft | 442 kts | 133° |
| 2026-05-03 21:52 | -11.01224 | 98.71131 | 34896 ft | 442 kts | 133° |
| 2026-05-03 21:52 | -11.05436 | 98.75688 | 34895 ft | 442 kts | 133° |
| 2026-05-03 21:53 | -11.09644 | 98.80243 | 34892 ft | 442 kts | 133° |
| 2026-05-03 21:53 | -11.13854 | 98.84802 | 34897 ft | 442 kts | 133° |
| 2026-05-03 21:54 | -11.18063 | 98.89361 | 34896 ft | 442 kts | 133° |
| 2026-05-03 21:54 | -11.22272 | 98.93922 | 34894 ft | 442 kts | 133° |
| 2026-05-03 21:55 | -11.26481 | 98.98487 | 34894 ft | 442 kts | 133° |
| 2026-05-03 21:55 | -11.30691 | 99.03054 | 34898 ft | 443 kts | 133° |
| 2026-05-03 21:56 | -11.34910 | 99.07632 | 34898 ft | 443 kts | 133° |
| 2026-05-03 21:56 | -11.39126 | 99.12210 | 34903 ft | 443 kts | 133° |
| 2026-05-03 21:57 | -11.43343 | 99.16791 | 34899 ft | 443 kts | 133° |
| 2026-05-03 21:57 | -11.47555 | 99.21368 | 34893 ft | 442 kts | 133° |
| 2026-05-03 21:58 | -11.51730 | 99.25908 | 34900 ft | 441 kts | 133° |
| 2026-05-03 21:58 | -11.55951 | 99.30500 | 34896 ft | 441 kts | 133° |
| 2026-05-03 21:59 | -11.60142 | 99.35061 | 34901 ft | 440 kts | 133° |
| 2026-05-03 21:59 | -11.64330 | 99.39621 | 34901 ft | 441 kts | 133° |
| 2026-05-03 22:00 | -11.68496 | 99.44159 | 34906 ft | 441 kts | 133° |
| 2026-05-03 22:00 | -11.72692 | 99.48732 | 34906 ft | 441 kts | 133° |
| 2026-05-03 22:01 | -11.76886 | 99.53306 | 34905 ft | 442 kts | 133° |
| 2026-05-03 22:01 | -11.81087 | 99.57888 | 34910 ft | 442 kts | 133° |
| 2026-05-03 22:02 | -11.85310 | 99.62497 | 34906 ft | 441 kts | 133° |
| 2026-05-03 22:02 | -11.89473 | 99.67043 | 34911 ft | 441 kts | 133° |
| 2026-05-03 22:03 | -11.93656 | 99.71613 | 34901 ft | 440 kts | 133° |
| 2026-05-03 22:03 | -11.97834 | 99.76179 | 34917 ft | 440 kts | 133° |
| 2026-05-03 22:04 | -12.02013 | 99.80749 | 34923 ft | 440 kts | 133° |
| 2026-05-03 22:04 | -12.06189 | 99.85318 | 34911 ft | 440 kts | 133° |
| 2026-05-03 22:05 | -12.10364 | 99.89889 | 34910 ft | 440 kts | 133° |
| 2026-05-03 22:05 | -12.13861 | 99.93718 | 34915 ft | 440 kts | 133° |
| 2026-05-03 22:06 | -12.18036 | 99.98292 | 34911 ft | 440 kts | 133° |
| 2026-05-03 22:06 | -12.22214 | 100.02872 | 34911 ft | 441 kts | 133° |
| 2026-05-03 22:07 | -12.26397 | 100.07459 | 34915 ft | 441 kts | 133° |
| 2026-05-03 22:07 | -12.30584 | 100.12053 | 34920 ft | 442 kts | 133° |
| 2026-05-03 22:08 | -12.34781 | 100.16661 | 34917 ft | 443 kts | 133° |
| 2026-05-03 22:08 | -12.38981 | 100.21274 | 34925 ft | 442 kts | 133° |
| 2026-05-03 22:09 | -12.43163 | 100.25870 | 34913 ft | 441 kts | 133° |
| 2026-05-03 22:10 | -12.49403 | 100.32731 | 34922 ft | 437 kts | 133° |
| 2026-05-03 22:10 | -12.53542 | 100.37285 | 34926 ft | 436 kts | 133° |
| 2026-05-03 22:11 | -12.57677 | 100.41837 | 34926 ft | 437 kts | 133° |
| 2026-05-03 22:11 | -12.61822 | 100.46402 | 34933 ft | 438 kts | 133° |
| 2026-05-03 22:12 | -12.65983 | 100.50988 | 34925 ft | 440 kts | 133° |
| 2026-05-03 22:12 | -12.70154 | 100.55587 | 34925 ft | 441 kts | 133° |
| 2026-05-03 22:13 | -12.74323 | 100.60186 | 34922 ft | 440 kts | 133° |
| 2026-05-03 22:13 | -12.78476 | 100.64770 | 34920 ft | 438 kts | 133° |
| 2026-05-03 22:14 | -12.82615 | 100.69340 | 34925 ft | 437 kts | 133° |
| 2026-05-03 22:14 | -12.86741 | 100.73898 | 34927 ft | 436 kts | 133° |
| 2026-05-03 22:15 | -12.90861 | 100.78453 | 34919 ft | 436 kts | 133° |
| 2026-05-03 22:15 | -12.94992 | 100.83021 | 34938 ft | 438 kts | 133° |
| 2026-05-03 22:16 | -12.99145 | 100.87617 | 34935 ft | 440 kts | 133° |
| 2026-05-03 22:16 | -13.03319 | 100.92239 | 34933 ft | 443 kts | 133° |
| 2026-05-03 22:17 | -13.07509 | 100.96880 | 34934 ft | 444 kts | 133° |
| 2026-05-03 22:17 | -13.11707 | 101.01533 | 34939 ft | 444 kts | 133° |
| 2026-05-03 22:18 | -13.15897 | 101.06180 | 34929 ft | 443 kts | 133° |
| 2026-05-03 22:18 | -13.20075 | 101.10815 | 34929 ft | 441 kts | 133° |
| 2026-05-03 22:19 | -13.24232 | 101.15430 | 34932 ft | 439 kts | 133° |
| 2026-05-03 22:19 | -13.28381 | 101.20039 | 34931 ft | 439 kts | 132° |
| 2026-05-03 22:20 | -13.32528 | 101.24648 | 34944 ft | 440 kts | 132° |
| 2026-05-03 22:20 | -13.36684 | 101.29269 | 34947 ft | 441 kts | 132° |
| 2026-05-03 22:21 | -13.40853 | 101.33909 | 34943 ft | 442 kts | 133° |
| 2026-05-03 22:21 | -13.45028 | 101.38556 | 34943 ft | 443 kts | 133° |
| 2026-05-03 22:22 | -13.49210 | 101.43213 | 34942 ft | 443 kts | 133° |
| 2026-05-03 22:22 | -13.53392 | 101.47873 | 34944 ft | 443 kts | 133° |
| 2026-05-03 22:23 | -13.57568 | 101.52530 | 34944 ft | 443 kts | 133° |
| 2026-05-03 22:23 | -13.61743 | 101.57188 | 34939 ft | 443 kts | 134° |
| 2026-05-03 22:24 | -13.65923 | 101.61855 | 34955 ft | 444 kts | 134° |
| 2026-05-03 22:24 | -13.70111 | 101.66531 | 34954 ft | 445 kts | 134° |
| 2026-05-03 22:25 | -13.74309 | 101.71223 | 34957 ft | 446 kts | 134° |
| 2026-05-03 22:25 | -13.78505 | 101.75916 | 34949 ft | 446 kts | 134° |
| 2026-05-03 22:26 | -13.82697 | 101.80607 | 34950 ft | 445 kts | 134° |
| 2026-05-03 22:26 | -13.86886 | 101.85297 | 34949 ft | 444 kts | 134° |
| 2026-05-03 22:27 | -13.91060 | 101.89973 | 34952 ft | 443 kts | 134° |
| 2026-05-03 22:27 | -13.95232 | 101.94650 | 34950 ft | 443 kts | 134° |
| 2026-05-03 22:28 | -13.99404 | 101.99328 | 34961 ft | 443 kts | 134° |
| 2026-05-03 22:28 | -14.03379 | 102.04197 | 34958 ft | 445 kts | 130° |
| 2026-05-03 22:29 | -14.07190 | 102.09227 | 34961 ft | 445 kts | 129° |
| 2026-05-03 22:29 | -14.10999 | 102.14265 | 34959 ft | 446 kts | 130° |
| 2026-05-03 22:30 | -14.14831 | 102.19288 | 34959 ft | 446 kts | 130° |
| 2026-05-03 22:30 | -14.18674 | 102.24301 | 34961 ft | 446 kts | 130° |
| 2026-05-03 22:31 | -14.22520 | 102.29313 | 34964 ft | 446 kts | 130° |
| 2026-05-03 22:31 | -14.26363 | 102.34326 | 34960 ft | 445 kts | 130° |
| 2026-05-03 22:32 | -14.30199 | 102.39333 | 34956 ft | 445 kts | 130° |
| 2026-05-03 22:32 | -14.34032 | 102.44339 | 34960 ft | 444 kts | 130° |
| 2026-05-03 22:33 | -14.37859 | 102.49342 | 34962 ft | 444 kts | 130° |
| 2026-05-03 22:33 | -14.41682 | 102.54342 | 34961 ft | 444 kts | 130° |
| 2026-05-03 22:34 | -14.45505 | 102.59345 | 34960 ft | 444 kts | 130° |
| 2026-05-03 22:34 | -14.49324 | 102.64346 | 34962 ft | 444 kts | 130° |
| 2026-05-03 22:35 | -14.53144 | 102.69351 | 34962 ft | 444 kts | 130° |
| 2026-05-03 22:35 | -14.56963 | 102.74358 | 34959 ft | 444 kts | 130° |
| 2026-05-03 22:36 | -14.60784 | 102.79371 | 34963 ft | 445 kts | 130° |
| 2026-05-03 22:36 | -14.64610 | 102.84394 | 34970 ft | 445 kts | 130° |
| 2026-05-03 22:37 | -14.68441 | 102.89427 | 34966 ft | 446 kts | 130° |
| 2026-05-03 22:37 | -14.72248 | 102.94431 | 34968 ft | 446 kts | 130° |
| 2026-05-03 22:38 | -14.76107 | 102.99506 | 34969 ft | 446 kts | 130° |
| 2026-05-03 22:38 | -14.79941 | 103.04552 | 34970 ft | 446 kts | 130° |
| 2026-05-03 22:39 | -14.83744 | 103.09561 | 34969 ft | 446 kts | 130° |
| 2026-05-03 22:39 | -14.87571 | 103.14604 | 34968 ft | 446 kts | 130° |
| 2026-05-03 22:40 | -14.91395 | 103.19647 | 34976 ft | 445 kts | 130° |
| 2026-05-03 22:40 | -14.95244 | 103.24725 | 34973 ft | 446 kts | 130° |
| 2026-05-03 22:41 | -14.99041 | 103.29739 | 34973 ft | 446 kts | 130° |
| 2026-05-03 22:41 | -15.02867 | 103.34794 | 34973 ft | 446 kts | 130° |
| 2026-05-03 22:42 | -15.06695 | 103.39855 | 34974 ft | 447 kts | 130° |
| 2026-05-03 22:42 | -15.10522 | 103.44918 | 34979 ft | 447 kts | 130° |
| 2026-05-03 22:43 | -15.14351 | 103.49986 | 34977 ft | 447 kts | 130° |
| 2026-05-03 22:43 | -15.18176 | 103.55054 | 34974 ft | 447 kts | 130° |
| 2026-05-03 22:44 | -15.22001 | 103.60123 | 34976 ft | 447 kts | 130° |
| 2026-05-03 22:44 | -15.25826 | 103.65197 | 34977 ft | 447 kts | 130° |
| 2026-05-03 22:45 | -15.29657 | 103.70281 | 34981 ft | 448 kts | 130° |
| 2026-05-03 22:45 | -15.33490 | 103.75373 | 34982 ft | 449 kts | 130° |
| 2026-05-03 22:46 | -15.37329 | 103.80475 | 34990 ft | 449 kts | 130° |
| 2026-05-03 22:46 | -15.40546 | 103.84753 | 34986 ft | 449 kts | 130° |
| 2026-05-03 22:47 | -15.44386 | 103.89863 | 34988 ft | 449 kts | 130° |
| 2026-05-03 22:47 | -15.48223 | 103.94973 | 34985 ft | 449 kts | 130° |
| 2026-05-03 22:48 | -15.52058 | 104.00083 | 34986 ft | 449 kts | 130° |
| 2026-05-03 22:48 | -15.55886 | 104.05188 | 34991 ft | 448 kts | 130° |
| 2026-05-03 22:49 | -15.59716 | 104.10298 | 34992 ft | 449 kts | 130° |
| 2026-05-03 22:49 | -15.63546 | 104.15412 | 34989 ft | 449 kts | 130° |
| 2026-05-03 22:50 | -15.67375 | 104.20528 | 34988 ft | 449 kts | 130° |
| 2026-05-03 22:50 | -15.71204 | 104.25646 | 34986 ft | 449 kts | 130° |
| 2026-05-03 22:51 | -15.75033 | 104.30771 | 34990 ft | 449 kts | 130° |
| 2026-05-03 22:51 | -15.78863 | 104.35898 | 34990 ft | 449 kts | 130° |
| 2026-05-03 22:52 | -15.82688 | 104.41023 | 34989 ft | 449 kts | 130° |
| 2026-05-03 22:52 | -15.86513 | 104.46152 | 35004 ft | 449 kts | 131° |
| 2026-05-03 22:53 | -15.90340 | 104.51286 | 34998 ft | 450 kts | 131° |
| 2026-05-03 22:53 | -15.94167 | 104.56424 | 34993 ft | 450 kts | 131° |
| 2026-05-03 22:54 | -15.97998 | 104.61571 | 34992 ft | 450 kts | 131° |
| 2026-05-03 22:54 | -16.01828 | 104.66721 | 34994 ft | 450 kts | 131° |
| 2026-05-03 22:55 | -16.05659 | 104.71876 | 34991 ft | 450 kts | 130° |
| 2026-05-03 22:55 | -16.09490 | 104.77033 | 34994 ft | 450 kts | 130° |
| 2026-05-03 22:56 | -16.13317 | 104.82190 | 34997 ft | 450 kts | 130° |
| 2026-05-03 22:56 | -16.17144 | 104.87350 | 35009 ft | 450 kts | 130° |
| 2026-05-03 22:57 | -16.20969 | 104.92511 | 34997 ft | 451 kts | 131° |
| 2026-05-03 22:57 | -16.24795 | 104.97677 | 35006 ft | 451 kts | 131° |
| 2026-05-03 22:58 | -16.28620 | 105.02845 | 34998 ft | 451 kts | 131° |
| 2026-05-03 22:58 | -16.32442 | 105.08014 | 35000 ft | 450 kts | 131° |
| 2026-05-03 22:59 | -16.36262 | 105.13183 | 35000 ft | 450 kts | 131° |
| 2026-05-03 22:59 | -16.40077 | 105.18349 | 35003 ft | 450 kts | 131° |
| 2026-05-03 23:00 | -16.43891 | 105.23517 | 35001 ft | 450 kts | 131° |
| 2026-05-03 23:00 | -16.47703 | 105.28687 | 35008 ft | 450 kts | 131° |
| 2026-05-03 23:01 | -16.51514 | 105.33859 | 35007 ft | 450 kts | 131° |
| 2026-05-03 23:01 | -16.55327 | 105.39037 | 35007 ft | 451 kts | 131° |
| 2026-05-03 23:02 | -16.59143 | 105.44223 | 35010 ft | 451 kts | 131° |
| 2026-05-03 23:02 | -16.62958 | 105.49412 | 35010 ft | 451 kts | 131° |
| 2026-05-03 23:03 | -16.66775 | 105.54608 | 35008 ft | 451 kts | 131° |
| 2026-05-03 23:03 | -16.70592 | 105.59807 | 35006 ft | 451 kts | 131° |
| 2026-05-03 23:04 | -16.74406 | 105.65006 | 35005 ft | 451 kts | 131° |
| 2026-05-03 23:04 | -16.78217 | 105.70205 | 35007 ft | 451 kts | 131° |
| 2026-05-03 23:05 | -16.82029 | 105.75410 | 35005 ft | 451 kts | 131° |
| 2026-05-03 23:05 | -16.85842 | 105.80618 | 35010 ft | 452 kts | 131° |
| 2026-05-03 23:06 | -16.89658 | 105.85836 | 35006 ft | 452 kts | 131° |
| 2026-05-03 23:06 | -16.93475 | 105.91060 | 35008 ft | 453 kts | 131° |
| 2026-05-03 23:07 | -16.97294 | 105.96289 | 35009 ft | 453 kts | 131° |
| 2026-05-03 23:07 | -17.01099 | 106.01534 | 35009 ft | 453 kts | 130° |
| 2026-05-03 23:08 | -17.04774 | 106.06895 | 35010 ft | 454 kts | 129° |
| 2026-05-03 23:08 | -17.08407 | 106.12290 | 35008 ft | 454 kts | 129° |
| 2026-05-03 23:09 | -17.12050 | 106.17681 | 35007 ft | 454 kts | 129° |
| 2026-05-03 23:09 | -17.15706 | 106.23069 | 35014 ft | 455 kts | 129° |
| 2026-05-03 23:10 | -17.19368 | 106.28461 | 35012 ft | 455 kts | 129° |
| 2026-05-03 23:10 | -17.23038 | 106.33866 | 35014 ft | 456 kts | 129° |
| 2026-05-03 23:11 | -17.26704 | 106.39272 | 35013 ft | 456 kts | 129° |
| 2026-05-03 23:11 | -17.30367 | 106.44678 | 35007 ft | 455 kts | 129° |
| 2026-05-03 23:12 | -17.34002 | 106.50047 | 35012 ft | 455 kts | 129° |
| 2026-05-03 23:12 | -17.37655 | 106.55446 | 35015 ft | 454 kts | 129° |
| 2026-05-03 23:13 | -17.41303 | 106.60842 | 35016 ft | 454 kts | 129° |
| 2026-05-03 23:13 | -17.44967 | 106.66268 | 35018 ft | 453 kts | 129° |
| 2026-05-03 23:14 | -17.48580 | 106.71621 | 35016 ft | 453 kts | 129° |
| 2026-05-03 23:14 | -17.52215 | 106.77010 | 35019 ft | 453 kts | 129° |
| 2026-05-03 23:15 | -17.55849 | 106.82403 | 35021 ft | 453 kts | 129° |
| 2026-05-03 23:15 | -17.59482 | 106.87799 | 35019 ft | 453 kts | 129° |
| 2026-05-03 23:16 | -17.63115 | 106.93199 | 35017 ft | 453 kts | 129° |
| 2026-05-03 23:16 | -17.66748 | 106.98603 | 35020 ft | 453 kts | 129° |
| 2026-05-03 23:17 | -17.70379 | 107.04010 | 35023 ft | 454 kts | 129° |
| 2026-05-03 23:17 | -17.74018 | 107.09431 | 35024 ft | 455 kts | 130° |
| 2026-05-03 23:18 | -17.77661 | 107.14863 | 35019 ft | 455 kts | 130° |
| 2026-05-03 23:18 | -17.81303 | 107.20299 | 35024 ft | 455 kts | 130° |
| 2026-05-03 23:19 | -17.84969 | 107.25775 | 35024 ft | 455 kts | 129° |
| 2026-05-03 23:19 | -17.88582 | 107.31177 | 35024 ft | 455 kts | 129° |
| 2026-05-03 23:20 | -17.92217 | 107.36615 | 35023 ft | 455 kts | 129° |
| 2026-05-03 23:20 | -17.95848 | 107.42053 | 35026 ft | 454 kts | 130° |
| 2026-05-03 23:21 | -17.99475 | 107.47488 | 35029 ft | 454 kts | 130° |
| 2026-05-03 23:21 | -18.03099 | 107.52923 | 35030 ft | 454 kts | 130° |
| 2026-05-03 23:22 | -18.08533 | 107.61082 | 35026 ft | 454 kts | 130° |
| 2026-05-03 23:22 | -18.12155 | 107.66526 | 35028 ft | 454 kts | 130° |
| 2026-05-03 23:23 | -18.15775 | 107.71971 | 35031 ft | 455 kts | 130° |
| 2026-05-03 23:23 | -18.19397 | 107.77424 | 35032 ft | 455 kts | 130° |
| 2026-05-03 23:24 | -18.23014 | 107.82874 | 35028 ft | 454 kts | 130° |
| 2026-05-03 23:24 | -18.26628 | 107.88325 | 35047 ft | 454 kts | 130° |
| 2026-05-03 23:25 | -18.30244 | 107.93782 | 35036 ft | 455 kts | 130° |
| 2026-05-03 23:25 | -18.33860 | 107.99244 | 35032 ft | 455 kts | 130° |
| 2026-05-03 23:26 | -18.37476 | 108.04712 | 35038 ft | 455 kts | 130° |
| 2026-05-03 23:26 | -18.41090 | 108.10180 | 35038 ft | 455 kts | 130° |
| 2026-05-03 23:27 | -18.44704 | 108.15654 | 35037 ft | 455 kts | 130° |
| 2026-05-03 23:27 | -18.47732 | 108.20242 | 35040 ft | 455 kts | 130° |
| 2026-05-03 23:28 | -18.51344 | 108.25721 | 35038 ft | 455 kts | 130° |
| 2026-05-03 23:28 | -18.54954 | 108.31203 | 35046 ft | 455 kts | 130° |
| 2026-05-03 23:29 | -18.58567 | 108.36692 | 35037 ft | 456 kts | 130° |
| 2026-05-03 23:29 | -18.62179 | 108.42185 | 35044 ft | 456 kts | 130° |
| 2026-05-03 23:30 | -18.65792 | 108.47684 | 35042 ft | 456 kts | 130° |
| 2026-05-03 23:30 | -18.69404 | 108.53188 | 35040 ft | 456 kts | 130° |
| 2026-05-03 23:31 | -18.73013 | 108.58691 | 35041 ft | 456 kts | 130° |
| 2026-05-03 23:31 | -18.76623 | 108.64200 | 35040 ft | 456 kts | 130° |
| 2026-05-03 23:32 | -18.80224 | 108.69700 | 35040 ft | 456 kts | 130° |
| 2026-05-03 23:32 | -18.83824 | 108.75204 | 35051 ft | 456 kts | 130° |
| 2026-05-03 23:33 | -18.87423 | 108.80712 | 35047 ft | 456 kts | 130° |
| 2026-05-03 23:33 | -18.91023 | 108.86225 | 35045 ft | 456 kts | 130° |
| 2026-05-03 23:34 | -18.94619 | 108.91739 | 35044 ft | 456 kts | 130° |
| 2026-05-03 23:34 | -18.98189 | 108.97216 | 35044 ft | 456 kts | 130° |
| 2026-05-03 23:35 | -19.01805 | 109.02712 | 35048 ft | 455 kts | 131° |
| 2026-05-03 23:35 | -19.05509 | 109.08127 | 35046 ft | 454 kts | 132° |
| 2026-05-03 23:36 | -19.09228 | 109.13534 | 35061 ft | 455 kts | 132° |
| 2026-05-03 23:36 | -19.12936 | 109.18951 | 35062 ft | 455 kts | 133° |
| 2026-05-03 23:37 | -19.16635 | 109.24376 | 35056 ft | 455 kts | 132° |
| 2026-05-03 23:37 | -19.20332 | 109.29811 | 35047 ft | 455 kts | 132° |
| 2026-05-03 23:38 | -19.24023 | 109.35242 | 35052 ft | 454 kts | 132° |
| 2026-05-03 23:38 | -19.27712 | 109.40673 | 35049 ft | 454 kts | 132° |
| 2026-05-03 23:39 | -19.31398 | 109.46105 | 35049 ft | 454 kts | 132° |
| 2026-05-03 23:39 | -19.35079 | 109.51535 | 35051 ft | 454 kts | 132° |
| 2026-05-03 23:40 | -19.38758 | 109.56964 | 35074 ft | 454 kts | 133° |
| 2026-05-03 23:40 | -19.42437 | 109.62399 | 35053 ft | 454 kts | 133° |
| 2026-05-03 23:41 | -19.46117 | 109.67841 | 35057 ft | 454 kts | 133° |
| 2026-05-03 23:41 | -19.49796 | 109.73287 | 35059 ft | 455 kts | 133° |
| 2026-05-03 23:42 | -19.53479 | 109.78743 | 35058 ft | 455 kts | 132° |
| 2026-05-03 23:42 | -19.57163 | 109.84205 | 35061 ft | 455 kts | 133° |
| 2026-05-03 23:43 | -19.60841 | 109.89665 | 35057 ft | 455 kts | 133° |
| 2026-05-03 23:43 | -19.64517 | 109.95125 | 35059 ft | 454 kts | 133° |
| 2026-05-03 23:44 | -19.68188 | 110.00584 | 35059 ft | 455 kts | 133° |
| 2026-05-03 23:44 | -19.71863 | 110.06052 | 35061 ft | 455 kts | 133° |
| 2026-05-03 23:45 | -19.75538 | 110.11525 | 35063 ft | 455 kts | 133° |
| 2026-05-03 23:45 | -19.79213 | 110.17005 | 35066 ft | 456 kts | 133° |
| 2026-05-03 23:46 | -19.82886 | 110.22485 | 35061 ft | 456 kts | 133° |
| 2026-05-03 23:46 | -19.86558 | 110.27971 | 35063 ft | 455 kts | 133° |
| 2026-05-03 23:47 | -19.90224 | 110.33452 | 35065 ft | 455 kts | 133° |
| 2026-05-03 23:47 | -19.93889 | 110.38937 | 35076 ft | 455 kts | 133° |
| 2026-05-03 23:48 | -19.97555 | 110.44425 | 35068 ft | 456 kts | 133° |
| 2026-05-03 23:48 | -20.01223 | 110.49925 | 35068 ft | 456 kts | 133° |
| 2026-05-03 23:49 | -20.04893 | 110.55432 | 35068 ft | 456 kts | 133° |
| 2026-05-03 23:49 | -20.08562 | 110.60943 | 35069 ft | 456 kts | 133° |
| 2026-05-03 23:50 | -20.11610 | 110.65525 | 35069 ft | 457 kts | 133° |
| 2026-05-03 23:50 | -20.15894 | 110.71971 | 35068 ft | 456 kts | 133° |
| 2026-05-03 23:51 | -20.19558 | 110.77489 | 35070 ft | 456 kts | 133° |
| 2026-05-03 23:51 | -20.23217 | 110.83006 | 35076 ft | 456 kts | 133° |
| 2026-05-03 23:52 | -20.26870 | 110.88519 | 35069 ft | 455 kts | 133° |
| 2026-05-03 23:52 | -20.30519 | 110.94030 | 35071 ft | 455 kts | 133° |
| 2026-05-03 23:53 | -20.34163 | 110.99540 | 35070 ft | 455 kts | 133° |
| 2026-05-03 23:53 | -20.37803 | 111.05047 | 35074 ft | 455 kts | 133° |
| 2026-05-03 23:54 | -20.41441 | 111.10558 | 35074 ft | 454 kts | 133° |
| 2026-05-03 23:54 | -20.45078 | 111.16072 | 35090 ft | 454 kts | 133° |
| 2026-05-03 23:55 | -20.48716 | 111.21593 | 35082 ft | 455 kts | 133° |
| 2026-05-03 23:55 | -20.52358 | 111.27125 | 35078 ft | 456 kts | 133° |
| 2026-05-03 23:56 | -20.55998 | 111.32660 | 35070 ft | 456 kts | 133° |
| 2026-05-03 23:56 | -20.59641 | 111.38204 | 35072 ft | 456 kts | 133° |
| 2026-05-03 23:57 | -20.63283 | 111.43753 | 35074 ft | 456 kts | 133° |
| 2026-05-03 23:57 | -20.66926 | 111.49308 | 35074 ft | 457 kts | 133° |
| 2026-05-03 23:58 | -20.70567 | 111.54866 | 35075 ft | 456 kts | 133° |
| 2026-05-03 23:58 | -20.74204 | 111.60423 | 35084 ft | 457 kts | 133° |
| 2026-05-03 23:59 | -20.77845 | 111.65992 | 35086 ft | 457 kts | 133° |
| 2026-05-03 23:59 | -20.81486 | 111.71566 | 35081 ft | 457 kts | 133° |
| 2026-05-04 00:00 | -20.85126 | 111.77143 | 35084 ft | 457 kts | 133° |
| 2026-05-04 00:00 | -20.88762 | 111.82723 | 35090 ft | 457 kts | 133° |
| 2026-05-04 00:01 | -20.92394 | 111.88300 | 35080 ft | 456 kts | 133° |
| 2026-05-04 00:01 | -20.96015 | 111.93866 | 35079 ft | 455 kts | 133° |
| 2026-05-04 00:02 | -20.99628 | 111.99425 | 35090 ft | 455 kts | 133° |
| 2026-05-04 00:02 | -21.03147 | 112.05080 | 35083 ft | 457 kts | 131° |
| 2026-05-04 00:03 | -21.06558 | 112.10828 | 35083 ft | 458 kts | 130° |
| 2026-05-04 00:03 | -21.09970 | 112.16582 | 35088 ft | 457 kts | 131° |
| 2026-05-04 00:04 | -21.13396 | 112.22325 | 35082 ft | 457 kts | 131° |
| 2026-05-04 00:04 | -21.16827 | 112.28062 | 35087 ft | 457 kts | 131° |
| 2026-05-04 00:05 | -21.20261 | 112.33804 | 35088 ft | 457 kts | 131° |
| 2026-05-04 00:05 | -21.23690 | 112.39545 | 35100 ft | 458 kts | 131° |
| 2026-05-04 00:06 | -21.27128 | 112.45306 | 35092 ft | 459 kts | 131° |
| 2026-05-04 00:06 | -21.30570 | 112.51082 | 35098 ft | 460 kts | 131° |
| 2026-05-04 00:07 | -21.34018 | 112.56875 | 35094 ft | 461 kts | 131° |
| 2026-05-04 00:07 | -21.37468 | 112.62677 | 35089 ft | 462 kts | 131° |
| 2026-05-04 00:08 | -21.40335 | 112.67505 | 35092 ft | 462 kts | 131° |
| 2026-05-04 00:08 | -21.43783 | 112.73316 | 35092 ft | 461 kts | 131° |
| 2026-05-04 00:09 | -21.47225 | 112.79122 | 35103 ft | 461 kts | 131° |
| 2026-05-04 00:09 | -21.50665 | 112.84931 | 35102 ft | 461 kts | 132° |
| 2026-05-04 00:10 | -21.54100 | 112.90737 | 35095 ft | 460 kts | 131° |
| 2026-05-04 00:10 | -21.57533 | 112.96545 | 35101 ft | 460 kts | 131° |
| 2026-05-04 00:11 | -21.60959 | 113.02348 | 35100 ft | 460 kts | 131° |
| 2026-05-04 00:11 | -21.64382 | 113.08153 | 35101 ft | 460 kts | 131° |
| 2026-05-04 00:12 | -21.67804 | 113.13960 | 35107 ft | 460 kts | 132° |
| 2026-05-04 00:12 | -21.71222 | 113.19769 | 35102 ft | 460 kts | 132° |
| 2026-05-04 00:13 | -21.74644 | 113.25590 | 35106 ft | 460 kts | 132° |
| 2026-05-04 00:13 | -21.78063 | 113.31412 | 35103 ft | 460 kts | 132° |
| 2026-05-04 00:14 | -21.81480 | 113.37238 | 35107 ft | 460 kts | 132° |
| 2026-05-04 00:14 | -21.84896 | 113.43067 | 35110 ft | 460 kts | 132° |
| 2026-05-04 00:15 | -21.88311 | 113.48903 | 35111 ft | 460 kts | 132° |
| 2026-05-04 00:15 | -21.91722 | 113.54737 | 35114 ft | 460 kts | 132° |
| 2026-05-04 00:16 | -21.95130 | 113.60571 | 35108 ft | 460 kts | 132° |
| 2026-05-04 00:16 | -21.98538 | 113.66413 | 35123 ft | 461 kts | 132° |
| 2026-05-04 00:17 | -22.01946 | 113.72260 | 35117 ft | 461 kts | 132° |
| 2026-05-04 00:17 | -22.05353 | 113.78113 | 35118 ft | 461 kts | 132° |
| 2026-05-04 00:18 | -22.08757 | 113.83967 | 35112 ft | 461 kts | 132° |
| 2026-05-04 00:18 | -22.12156 | 113.89820 | 35110 ft | 460 kts | 132° |
| 2026-05-04 00:19 | -22.15553 | 113.95675 | 35108 ft | 460 kts | 132° |
| 2026-05-04 00:19 | -22.18969 | 114.01569 | 35104 ft | 460 kts | 132° |
| 2026-05-04 00:20 | -22.22364 | 114.07427 | 35113 ft | 460 kts | 133° |
| 2026-05-04 00:20 | -22.24226 | 114.10177 | 35099 ft | 447 kts | 143° |
| 2026-05-04 00:20 | -22.26373 | 114.12531 | 35110 ft | 437 kts | 148° |
| 2026-05-04 00:21 | -22.30805 | 114.16992 | 35101 ft | 435 kts | 149° |
| 2026-05-04 00:21 | -22.35245 | 114.21432 | 35111 ft | 435 kts | 149° |
| 2026-05-04 00:22 | -22.39634 | 114.25878 | 35112 ft | 436 kts | 149° |
| 2026-05-04 00:22 | -22.44068 | 114.30407 | 35123 ft | 435 kts | 149° |
| 2026-05-04 00:23 | -22.48464 | 114.34912 | 35142 ft | 436 kts | 149° |
| 2026-05-04 00:23 | -22.52860 | 114.39421 | 35137 ft | 436 kts | 149° |
| 2026-05-04 00:24 | -22.57250 | 114.43929 | 35142 ft | 435 kts | 149° |
| 2026-05-04 00:24 | -22.61604 | 114.48403 | 35133 ft | 434 kts | 149° |
| 2026-05-04 00:25 | -22.65975 | 114.52898 | 35131 ft | 433 kts | 149° |
| 2026-05-04 00:25 | -22.70336 | 114.57387 | 35134 ft | 432 kts | 149° |
| 2026-05-04 00:26 | -22.74693 | 114.61874 | 35136 ft | 432 kts | 149° |
| 2026-05-04 00:26 | -22.79048 | 114.66363 | 35144 ft | 432 kts | 149° |
| 2026-05-04 00:27 | -22.83406 | 114.70861 | 35149 ft | 433 kts | 149° |
| 2026-05-04 00:27 | -22.87765 | 114.75363 | 35141 ft | 433 kts | 149° |
| 2026-05-04 00:28 | -22.92159 | 114.79906 | 35142 ft | 434 kts | 149° |
| 2026-05-04 00:28 | -22.96524 | 114.84425 | 35162 ft | 434 kts | 149° |
| 2026-05-04 00:29 | -23.00890 | 114.88948 | 35144 ft | 434 kts | 149° |
| 2026-05-04 00:29 | -23.05257 | 114.93477 | 35142 ft | 434 kts | 149° |
| 2026-05-04 00:30 | -23.09616 | 114.98002 | 35150 ft | 433 kts | 149° |
| 2026-05-04 00:30 | -23.13965 | 115.02521 | 35150 ft | 433 kts | 149° |
| 2026-05-04 00:31 | -23.18308 | 115.07038 | 35151 ft | 432 kts | 149° |
| 2026-05-04 00:31 | -23.22640 | 115.11548 | 35166 ft | 431 kts | 149° |
| 2026-05-04 00:32 | -23.26966 | 115.16054 | 35153 ft | 430 kts | 149° |
| 2026-05-04 00:32 | -23.31283 | 115.20556 | 35157 ft | 430 kts | 149° |
| 2026-05-04 00:33 | -23.37752 | 115.27308 | 35161 ft | 429 kts | 149° |
| 2026-05-04 00:34 | -23.42034 | 115.31784 | 35159 ft | 430 kts | 149° |
| 2026-05-04 00:34 | -23.46343 | 115.36293 | 35188 ft | 430 kts | 149° |
| 2026-05-04 00:35 | -23.50679 | 115.40835 | 35167 ft | 429 kts | 149° |
| 2026-05-04 00:35 | -23.54966 | 115.45331 | 35161 ft | 427 kts | 149° |
| 2026-05-04 00:36 | -23.59210 | 115.49786 | 35164 ft | 425 kts | 149° |
| 2026-05-04 00:36 | -23.63468 | 115.54257 | 35162 ft | 425 kts | 149° |
| 2026-05-04 00:37 | -23.67749 | 115.58756 | 35174 ft | 424 kts | 149° |
| 2026-05-04 00:37 | -23.71997 | 115.63226 | 35182 ft | 424 kts | 150° |
| 2026-05-04 00:38 | -23.76215 | 115.67668 | 35186 ft | 424 kts | 150° |
| 2026-05-04 00:38 | -23.80457 | 115.72140 | 35174 ft | 423 kts | 150° |
| 2026-05-04 00:39 | -23.84686 | 115.76605 | 35178 ft | 422 kts | 150° |
| 2026-05-04 00:39 | -23.88904 | 115.81061 | 35182 ft | 421 kts | 150° |
| 2026-05-04 00:40 | -23.93114 | 115.85512 | 35180 ft | 421 kts | 150° |
| 2026-05-04 00:40 | -23.97322 | 115.89964 | 35195 ft | 421 kts | 150° |
| 2026-05-04 00:41 | -24.01533 | 115.94424 | 35187 ft | 421 kts | 150° |
| 2026-05-04 00:41 | -24.05737 | 115.98883 | 35194 ft | 421 kts | 150° |
| 2026-05-04 00:42 | -24.09934 | 116.03338 | 35190 ft | 420 kts | 150° |
| 2026-05-04 00:42 | -24.14125 | 116.07792 | 35195 ft | 419 kts | 150° |
| 2026-05-04 00:43 | -24.18308 | 116.12240 | 35226 ft | 419 kts | 150° |
| 2026-05-04 00:43 | -24.22495 | 116.16695 | 35208 ft | 419 kts | 150° |
| 2026-05-04 00:44 | -24.26676 | 116.21150 | 35200 ft | 419 kts | 150° |
| 2026-05-04 00:44 | -24.30856 | 116.25608 | 35201 ft | 419 kts | 150° |
| 2026-05-04 00:45 | -24.35032 | 116.30067 | 35211 ft | 419 kts | 150° |
| 2026-05-04 00:45 | -24.39208 | 116.34529 | 35205 ft | 419 kts | 150° |
| 2026-05-04 00:46 | -24.43379 | 116.38990 | 35228 ft | 419 kts | 149° |
| 2026-05-04 00:46 | -24.47558 | 116.43464 | 35218 ft | 420 kts | 149° |
| 2026-05-04 00:47 | -24.51735 | 116.47941 | 35219 ft | 420 kts | 149° |
| 2026-05-04 00:47 | -24.55916 | 116.52427 | 35224 ft | 420 kts | 149° |
| 2026-05-04 00:48 | -24.60096 | 116.56916 | 35233 ft | 420 kts | 149° |
| 2026-05-04 00:48 | -24.64272 | 116.61405 | 35233 ft | 420 kts | 149° |
| 2026-05-04 00:49 | -24.67748 | 116.65144 | 35237 ft | 421 kts | 149° |
| 2026-05-04 00:49 | -24.71938 | 116.69655 | 35243 ft | 422 kts | 148° |
| 2026-05-04 00:50 | -24.76131 | 116.74176 | 35241 ft | 422 kts | 148° |
| 2026-05-04 00:50 | -24.80329 | 116.78706 | 35247 ft | 423 kts | 148° |
| 2026-05-04 00:51 | -24.84527 | 116.83242 | 35250 ft | 423 kts | 148° |
| 2026-05-04 00:51 | -24.88724 | 116.87781 | 35290 ft | 423 kts | 148° |
| 2026-05-04 00:52 | -24.92933 | 116.92335 | 35257 ft | 424 kts | 147° |
| 2026-05-04 00:52 | -24.97139 | 116.96895 | 35242 ft | 424 kts | 147° |
| 2026-05-04 00:53 | -25.01301 | 117.01505 | 35252 ft | 427 kts | 144° |
| 2026-05-04 00:53 | -25.05262 | 117.06419 | 35257 ft | 429 kts | 142° |
| 2026-05-04 00:54 | -25.09169 | 117.11403 | 35266 ft | 429 kts | 142° |
| 2026-05-04 00:54 | -25.13089 | 117.16373 | 35268 ft | 429 kts | 142° |
| 2026-05-04 00:55 | -25.17015 | 117.21320 | 35277 ft | 428 kts | 142° |
| 2026-05-04 00:55 | -25.20944 | 117.26260 | 35271 ft | 428 kts | 142° |
| 2026-05-04 00:56 | -25.24870 | 117.31200 | 35271 ft | 428 kts | 142° |
| 2026-05-04 00:56 | -25.28794 | 117.36141 | 35278 ft | 427 kts | 142° |
| 2026-05-04 00:57 | -25.32713 | 117.41082 | 35281 ft | 428 kts | 142° |
| 2026-05-04 00:57 | -25.36628 | 117.46025 | 35283 ft | 427 kts | 141° |
| 2026-05-04 00:58 | -25.40527 | 117.50954 | 35285 ft | 425 kts | 141° |
| 2026-05-04 00:58 | -25.44400 | 117.55857 | 35275 ft | 422 kts | 141° |
| 2026-05-04 00:59 | -25.48249 | 117.60733 | 35277 ft | 419 kts | 141° |
| 2026-05-04 00:59 | -25.52077 | 117.65585 | 35287 ft | 418 kts | 141° |
| 2026-05-04 01:00 | -25.55896 | 117.70429 | 35310 ft | 418 kts | 141° |
| 2026-05-04 01:00 | -25.59715 | 117.75278 | 35300 ft | 418 kts | 140° |
| 2026-05-04 01:01 | -25.63538 | 117.80139 | 35298 ft | 418 kts | 140° |
| 2026-05-04 01:01 | -25.67359 | 117.85003 | 35296 ft | 419 kts | 140° |
| 2026-05-04 01:02 | -25.71179 | 117.89873 | 35302 ft | 418 kts | 140° |
| 2026-05-04 01:02 | -25.74999 | 117.94747 | 35304 ft | 419 kts | 140° |
| 2026-05-04 01:03 | -25.78817 | 117.99622 | 35321 ft | 419 kts | 139° |
| 2026-05-04 01:03 | -25.82637 | 118.04507 | 35307 ft | 419 kts | 139° |
| 2026-05-04 01:04 | -25.86454 | 118.09393 | 35306 ft | 419 kts | 138° |
| 2026-05-04 01:04 | -25.90271 | 118.14284 | 35304 ft | 419 kts | 138° |
| 2026-05-04 01:05 | -25.94080 | 118.19171 | 35308 ft | 418 kts | 138° |
| 2026-05-04 01:05 | -25.97885 | 118.24056 | 35314 ft | 418 kts | 138° |
| 2026-05-04 01:06 | -26.01689 | 118.28946 | 35320 ft | 418 kts | 137° |
| 2026-05-04 01:06 | -26.05489 | 118.33837 | 35317 ft | 418 kts | 137° |
| 2026-05-04 01:07 | -26.09288 | 118.38731 | 35324 ft | 418 kts | 137° |
| 2026-05-04 01:07 | -26.13082 | 118.43624 | 35319 ft | 418 kts | 137° |
| 2026-05-04 01:08 | -26.16873 | 118.48519 | 35318 ft | 417 kts | 137° |
| 2026-05-04 01:08 | -26.20660 | 118.53412 | 35340 ft | 417 kts | 136° |
| 2026-05-04 01:09 | -26.24438 | 118.58301 | 35326 ft | 416 kts | 136° |
| 2026-05-04 01:09 | -26.28208 | 118.63186 | 35321 ft | 415 kts | 136° |
| 2026-05-04 01:10 | -26.31969 | 118.68062 | 35334 ft | 414 kts | 136° |
| 2026-05-04 01:10 | -26.35718 | 118.72929 | 35327 ft | 413 kts | 136° |
| 2026-05-04 01:11 | -26.39461 | 118.77793 | 35328 ft | 413 kts | 136° |
| 2026-05-04 01:11 | -26.43195 | 118.82651 | 35341 ft | 412 kts | 135° |
| 2026-05-04 01:12 | -26.46927 | 118.87511 | 35335 ft | 412 kts | 135° |
| 2026-05-04 01:12 | -26.50652 | 118.92368 | 35329 ft | 411 kts | 135° |
| 2026-05-04 01:13 | -26.54366 | 118.97216 | 35332 ft | 411 kts | 135° |
| 2026-05-04 01:13 | -26.58076 | 119.02062 | 35330 ft | 410 kts | 135° |
| 2026-05-04 01:14 | -26.61782 | 119.06910 | 35347 ft | 410 kts | 135° |
| 2026-05-04 01:14 | -26.65483 | 119.11756 | 35345 ft | 410 kts | 134° |
| 2026-05-04 01:15 | -26.69181 | 119.16605 | 35339 ft | 410 kts | 134° |
| 2026-05-04 01:15 | -26.72876 | 119.21453 | 35348 ft | 409 kts | 134° |
| 2026-05-04 01:16 | -26.76565 | 119.26300 | 35345 ft | 409 kts | 134° |
| 2026-05-04 01:16 | -26.80251 | 119.31148 | 35341 ft | 409 kts | 134° |
| 2026-05-04 01:17 | -26.83930 | 119.35992 | 35347 ft | 408 kts | 134° |
| 2026-05-04 01:17 | -26.87604 | 119.40835 | 35340 ft | 408 kts | 134° |
| 2026-05-04 01:18 | -26.91268 | 119.45671 | 35343 ft | 407 kts | 134° |
| 2026-05-04 01:18 | -26.94925 | 119.50501 | 35350 ft | 406 kts | 134° |
| 2026-05-04 01:19 | -26.98575 | 119.55329 | 35353 ft | 406 kts | 134° |
| 2026-05-04 01:19 | -27.02225 | 119.60161 | 35350 ft | 406 kts | 134° |
| 2026-05-04 01:20 | -27.05870 | 119.64991 | 35356 ft | 406 kts | 134° |
| 2026-05-04 01:20 | -27.09513 | 119.69825 | 35352 ft | 405 kts | 134° |
| 2026-05-04 01:21 | -27.13151 | 119.74657 | 35355 ft | 405 kts | 134° |
| 2026-05-04 01:21 | -27.16786 | 119.79492 | 35355 ft | 405 kts | 134° |
| 2026-05-04 01:22 | -27.20418 | 119.84326 | 35359 ft | 405 kts | 134° |
| 2026-05-04 01:22 | -27.24047 | 119.89163 | 35355 ft | 405 kts | 134° |
| 2026-05-04 01:23 | -27.27673 | 119.94001 | 35361 ft | 405 kts | 134° |
| 2026-05-04 01:23 | -27.31297 | 119.98842 | 35357 ft | 405 kts | 134° |
| 2026-05-04 01:24 | -27.34917 | 120.03683 | 35356 ft | 404 kts | 134° |
| 2026-05-04 01:24 | -27.38537 | 120.08528 | 35360 ft | 404 kts | 134° |
| 2026-05-04 01:25 | -27.42153 | 120.13374 | 35372 ft | 404 kts | 134° |
| 2026-05-04 01:25 | -27.45768 | 120.18225 | 35366 ft | 404 kts | 133° |
| 2026-05-04 01:26 | -27.49379 | 120.23075 | 35359 ft | 404 kts | 133° |
| 2026-05-04 01:26 | -27.52983 | 120.27921 | 35366 ft | 403 kts | 133° |
| 2026-05-04 01:27 | -27.56579 | 120.32763 | 35363 ft | 403 kts | 133° |
| 2026-05-04 01:27 | -27.60172 | 120.37605 | 35365 ft | 403 kts | 133° |
| 2026-05-04 01:28 | -27.63763 | 120.42450 | 35374 ft | 402 kts | 133° |
| 2026-05-04 01:28 | -27.67351 | 120.47297 | 35367 ft | 402 kts | 133° |
| 2026-05-04 01:29 | -27.70936 | 120.52146 | 35366 ft | 402 kts | 133° |
| 2026-05-04 01:29 | -27.73913 | 120.56176 | 35366 ft | 402 kts | 133° |
| 2026-05-04 01:30 | -27.77493 | 120.61028 | 35369 ft | 402 kts | 133° |
| 2026-05-04 01:30 | -27.81652 | 120.66671 | 35381 ft | 402 kts | 133° |
| 2026-05-04 01:31 | -27.84590 | 120.70805 | 35368 ft | 405 kts | 126° |
| 2026-05-04 01:31 | -27.87494 | 120.76278 | 35367 ft | 406 kts | 123° |
| 2026-05-04 01:32 | -27.90288 | 120.81831 | 35370 ft | 406 kts | 123° |
| 2026-05-04 01:32 | -27.93099 | 120.87369 | 35372 ft | 406 kts | 123° |
| 2026-05-04 01:33 | -27.95930 | 120.92894 | 35377 ft | 406 kts | 123° |
| 2026-05-04 01:33 | -27.98769 | 120.98415 | 35375 ft | 406 kts | 123° |
| 2026-05-04 01:34 | -28.01607 | 121.03935 | 35374 ft | 406 kts | 123° |
| 2026-05-04 01:34 | -28.04441 | 121.09455 | 35373 ft | 405 kts | 123° |
| 2026-05-04 01:35 | -28.07268 | 121.14967 | 35374 ft | 405 kts | 123° |
| 2026-05-04 01:35 | -28.10090 | 121.20478 | 35371 ft | 404 kts | 123° |
| 2026-05-04 01:36 | -28.12906 | 121.25985 | 35378 ft | 404 kts | 123° |
| 2026-05-04 01:36 | -28.15721 | 121.31498 | 35371 ft | 404 kts | 123° |
| 2026-05-04 01:37 | -28.18532 | 121.37009 | 35379 ft | 404 kts | 124° |
| 2026-05-04 01:37 | -28.21342 | 121.42524 | 35374 ft | 404 kts | 123° |
| 2026-05-04 01:38 | -28.24150 | 121.48044 | 35379 ft | 404 kts | 123° |
| 2026-05-04 01:38 | -28.26958 | 121.53571 | 35380 ft | 404 kts | 124° |
| 2026-05-04 01:39 | -28.29765 | 121.59104 | 35374 ft | 405 kts | 124° |
| 2026-05-04 01:39 | -28.32570 | 121.64638 | 35374 ft | 404 kts | 124° |
| 2026-05-04 01:40 | -28.35372 | 121.70176 | 35377 ft | 405 kts | 124° |
| 2026-05-04 01:40 | -28.38173 | 121.75718 | 35376 ft | 405 kts | 124° |
| 2026-05-04 01:41 | -28.40969 | 121.81260 | 35382 ft | 404 kts | 124° |
| 2026-05-04 01:41 | -28.43747 | 121.86770 | 35374 ft | 404 kts | 124° |
| 2026-05-04 01:42 | -28.46555 | 121.92349 | 35376 ft | 404 kts | 124° |
| 2026-05-04 01:42 | -28.49323 | 121.97856 | 35376 ft | 404 kts | 124° |
| 2026-05-04 01:43 | -28.52107 | 122.03402 | 35365 ft | 404 kts | 124° |
| 2026-05-04 01:43 | -28.54889 | 122.08950 | 35385 ft | 404 kts | 124° |
| 2026-05-04 01:44 | -28.57670 | 122.14505 | 35380 ft | 404 kts | 124° |
| 2026-05-04 01:44 | -28.60447 | 122.20059 | 35377 ft | 404 kts | 124° |
| 2026-05-04 01:45 | -28.63220 | 122.25613 | 35376 ft | 404 kts | 124° |
| 2026-05-04 01:45 | -28.67374 | 122.33948 | 35383 ft | 403 kts | 124° |
| 2026-05-04 01:46 | -28.70141 | 122.39508 | 35383 ft | 403 kts | 124° |
| 2026-05-04 01:46 | -28.72905 | 122.45069 | 35379 ft | 403 kts | 124° |
| 2026-05-04 01:47 | -28.75662 | 122.50624 | 35384 ft | 403 kts | 124° |
| 2026-05-04 01:47 | -28.78417 | 122.56183 | 35377 ft | 403 kts | 124° |
| 2026-05-04 01:48 | -28.81166 | 122.61738 | 35381 ft | 402 kts | 124° |
| 2026-05-04 01:48 | -28.83914 | 122.67297 | 35388 ft | 402 kts | 125° |
| 2026-05-04 01:49 | -28.86660 | 122.72859 | 35370 ft | 402 kts | 125° |
| 2026-05-04 01:49 | -28.89402 | 122.78424 | 35374 ft | 402 kts | 125° |
| 2026-05-04 01:50 | -28.92141 | 122.83987 | 35377 ft | 402 kts | 124° |
| 2026-05-04 01:50 | -28.94874 | 122.89548 | 35387 ft | 402 kts | 125° |
| 2026-05-04 01:51 | -28.97603 | 122.95108 | 35379 ft | 401 kts | 125° |
| 2026-05-04 01:51 | -29.00333 | 123.00670 | 35376 ft | 401 kts | 126° |
| 2026-05-04 01:52 | -29.03164 | 123.06135 | 35376 ft | 399 kts | 127° |
| 2026-05-04 01:52 | -29.06039 | 123.11561 | 35380 ft | 399 kts | 127° |
| 2026-05-04 01:53 | -29.08907 | 123.16999 | 35379 ft | 399 kts | 127° |
| 2026-05-04 01:53 | -29.11759 | 123.22441 | 35378 ft | 399 kts | 127° |
| 2026-05-04 01:54 | -29.14605 | 123.27888 | 35382 ft | 399 kts | 127° |
| 2026-05-04 01:54 | -29.17445 | 123.33335 | 35373 ft | 398 kts | 127° |
| 2026-05-04 01:55 | -29.20279 | 123.38778 | 35377 ft | 398 kts | 127° |
| 2026-05-04 01:55 | -29.23107 | 123.44217 | 35377 ft | 397 kts | 127° |
| 2026-05-04 01:56 | -29.25931 | 123.49655 | 35378 ft | 397 kts | 127° |
| 2026-05-04 01:56 | -29.28754 | 123.55096 | 35375 ft | 397 kts | 127° |
| 2026-05-04 01:57 | -29.31573 | 123.60540 | 35382 ft | 397 kts | 127° |
| 2026-05-04 01:57 | -29.34393 | 123.65991 | 35372 ft | 398 kts | 127° |
| 2026-05-04 01:58 | -29.37208 | 123.71441 | 35379 ft | 397 kts | 127° |
| 2026-05-04 01:58 | -29.40016 | 123.76886 | 35372 ft | 396 kts | 127° |
| 2026-05-04 01:59 | -29.42819 | 123.82327 | 35374 ft | 396 kts | 127° |
| 2026-05-04 01:59 | -29.45618 | 123.87767 | 35390 ft | 396 kts | 127° |
| 2026-05-04 02:00 | -29.48411 | 123.93202 | 35376 ft | 395 kts | 127° |
| 2026-05-04 02:00 | -29.51199 | 123.98637 | 35387 ft | 395 kts | 127° |
| 2026-05-04 02:01 | -29.53982 | 124.04068 | 35369 ft | 394 kts | 127° |
| 2026-05-04 02:01 | -29.56757 | 124.09490 | 35372 ft | 393 kts | 127° |
| 2026-05-04 02:02 | -29.59525 | 124.14908 | 35371 ft | 393 kts | 127° |
| 2026-05-04 02:02 | -29.62291 | 124.20326 | 35381 ft | 393 kts | 127° |
| 2026-05-04 02:03 | -29.65051 | 124.25742 | 35379 ft | 393 kts | 127° |
| 2026-05-04 02:03 | -29.67809 | 124.31160 | 35373 ft | 392 kts | 127° |
| 2026-05-04 02:04 | -29.70561 | 124.36575 | 35371 ft | 392 kts | 127° |
| 2026-05-04 02:04 | -29.73306 | 124.41983 | 35373 ft | 391 kts | 127° |
| 2026-05-04 02:05 | -29.76048 | 124.47392 | 35384 ft | 391 kts | 127° |
| 2026-05-04 02:05 | -29.78789 | 124.52805 | 35371 ft | 392 kts | 127° |
| 2026-05-04 02:06 | -29.81548 | 124.58262 | 35361 ft | 391 kts | 127° |
| 2026-05-04 02:06 | -29.84263 | 124.63641 | 35355 ft | 391 kts | 127° |
| 2026-05-04 02:07 | -29.86996 | 124.69060 | 35367 ft | 391 kts | 127° |
| 2026-05-04 02:07 | -29.89723 | 124.74476 | 35368 ft | 391 kts | 127° |
| 2026-05-04 02:08 | -29.92452 | 124.79902 | 35362 ft | 391 kts | 126° |
| 2026-05-04 02:08 | -29.95178 | 124.85331 | 35356 ft | 391 kts | 126° |
| 2026-05-04 02:09 | -29.97902 | 124.90764 | 35360 ft | 391 kts | 126° |
| 2026-05-04 02:09 | -30.00621 | 124.96194 | 35354 ft | 391 kts | 126° |
| 2026-05-04 02:10 | -30.03336 | 125.01622 | 35365 ft | 391 kts | 126° |
| 2026-05-04 02:10 | -30.06053 | 125.07062 | 35366 ft | 391 kts | 126° |
| 2026-05-04 02:11 | -30.08767 | 125.12505 | 35355 ft | 391 kts | 126° |
| 2026-05-04 02:11 | -30.11041 | 125.17071 | 35353 ft | 391 kts | 126° |
| 2026-05-04 02:12 | -30.13752 | 125.22521 | 35353 ft | 391 kts | 126° |
| 2026-05-04 02:12 | -30.16459 | 125.27970 | 35354 ft | 391 kts | 125° |
| 2026-05-04 02:13 | -30.19166 | 125.33427 | 35347 ft | 391 kts | 125° |
| 2026-05-04 02:13 | -30.21852 | 125.38848 | 35343 ft | 391 kts | 125° |
| 2026-05-04 02:14 | -30.24555 | 125.44312 | 35341 ft | 391 kts | 125° |
| 2026-05-04 02:14 | -30.27252 | 125.49772 | 35341 ft | 391 kts | 125° |
| 2026-05-04 02:15 | -30.29946 | 125.55233 | 35344 ft | 391 kts | 124° |
| 2026-05-04 02:15 | -30.32640 | 125.60700 | 35341 ft | 391 kts | 124° |
| 2026-05-04 02:16 | -30.35330 | 125.66169 | 35343 ft | 391 kts | 124° |
| 2026-05-04 02:16 | -30.38016 | 125.71637 | 35336 ft | 391 kts | 124° |
| 2026-05-04 02:17 | -30.40700 | 125.77106 | 35341 ft | 390 kts | 124° |
| 2026-05-04 02:17 | -30.43381 | 125.82578 | 35342 ft | 391 kts | 124° |
| 2026-05-04 02:18 | -30.46062 | 125.88058 | 35338 ft | 391 kts | 124° |
| 2026-05-04 02:18 | -30.48738 | 125.93537 | 35335 ft | 390 kts | 124° |
| 2026-05-04 02:19 | -30.51412 | 125.99018 | 35328 ft | 390 kts | 124° |
| 2026-05-04 02:19 | -30.54081 | 126.04497 | 35335 ft | 390 kts | 124° |
| 2026-05-04 02:20 | -30.56746 | 126.09975 | 35332 ft | 390 kts | 124° |
| 2026-05-04 02:20 | -30.59408 | 126.15456 | 35331 ft | 390 kts | 124° |
| 2026-05-04 02:21 | -30.62070 | 126.20943 | 35334 ft | 390 kts | 124° |
| 2026-05-04 02:21 | -30.64730 | 126.26433 | 35342 ft | 390 kts | 124° |
| 2026-05-04 02:22 | -30.67388 | 126.31928 | 35321 ft | 390 kts | 124° |
| 2026-05-04 02:22 | -30.70042 | 126.37423 | 35329 ft | 390 kts | 124° |
| 2026-05-04 02:23 | -30.72692 | 126.42918 | 35326 ft | 390 kts | 124° |
| 2026-05-04 02:23 | -30.75340 | 126.48415 | 35323 ft | 390 kts | 124° |
| 2026-05-04 02:24 | -30.77983 | 126.53910 | 35327 ft | 390 kts | 124° |
| 2026-05-04 02:24 | -30.80626 | 126.59413 | 35319 ft | 389 kts | 124° |
| 2026-05-04 02:25 | -30.83261 | 126.64908 | 35322 ft | 389 kts | 124° |
| 2026-05-04 02:25 | -30.85894 | 126.70405 | 35321 ft | 389 kts | 124° |
| 2026-05-04 02:26 | -30.88521 | 126.75899 | 35323 ft | 389 kts | 124° |
| 2026-05-04 02:26 | -30.91148 | 126.81400 | 35321 ft | 389 kts | 124° |
| 2026-05-04 02:27 | -30.93773 | 126.86905 | 35315 ft | 389 kts | 124° |
| 2026-05-04 02:27 | -30.96392 | 126.92407 | 35314 ft | 388 kts | 124° |
| 2026-05-04 02:28 | -30.99009 | 126.97910 | 35313 ft | 388 kts | 123° |
| 2026-05-04 02:28 | -31.01562 | 127.03463 | 35312 ft | 389 kts | 121° |
| 2026-05-04 02:29 | -31.03966 | 127.09125 | 35316 ft | 390 kts | 121° |
| 2026-05-04 02:29 | -31.06355 | 127.14797 | 35302 ft | 389 kts | 121° |
| 2026-05-04 02:30 | -31.08752 | 127.20457 | 35306 ft | 389 kts | 121° |
| 2026-05-04 02:30 | -31.11154 | 127.26109 | 35308 ft | 389 kts | 121° |
| 2026-05-04 02:31 | -31.13554 | 127.31757 | 35304 ft | 388 kts | 121° |
| 2026-05-04 02:31 | -31.15953 | 127.37407 | 35307 ft | 388 kts | 121° |
| 2026-05-04 02:32 | -31.18348 | 127.43056 | 35297 ft | 388 kts | 121° |
| 2026-05-04 02:32 | -31.20739 | 127.48706 | 35304 ft | 388 kts | 121° |
| 2026-05-04 02:33 | -31.23125 | 127.54352 | 35295 ft | 388 kts | 121° |
| 2026-05-04 02:33 | -31.25509 | 127.60002 | 35296 ft | 388 kts | 121° |
| 2026-05-04 02:34 | -31.27891 | 127.65657 | 35302 ft | 388 kts | 121° |
| 2026-05-04 02:34 | -31.30271 | 127.71314 | 35293 ft | 388 kts | 121° |
| 2026-05-04 02:35 | -31.32649 | 127.76977 | 35290 ft | 388 kts | 121° |
| 2026-05-04 02:35 | -31.35024 | 127.82641 | 35291 ft | 388 kts | 121° |
| 2026-05-04 02:36 | -31.37396 | 127.88305 | 35288 ft | 388 kts | 121° |
| 2026-05-04 02:36 | -31.39765 | 127.93972 | 35293 ft | 387 kts | 121° |
| 2026-05-04 02:37 | -31.42130 | 127.99638 | 35295 ft | 388 kts | 121° |
| 2026-05-04 02:37 | -31.44496 | 128.05315 | 35282 ft | 388 kts | 121° |
| 2026-05-04 02:38 | -31.46859 | 128.10994 | 35283 ft | 388 kts | 121° |
| 2026-05-04 02:38 | -31.49218 | 128.16674 | 35282 ft | 388 kts | 121° |
| 2026-05-04 02:39 | -31.51575 | 128.22356 | 35285 ft | 388 kts | 121° |
| 2026-05-04 02:39 | -31.53933 | 128.28049 | 35277 ft | 388 kts | 121° |
| 2026-05-04 02:40 | -31.56288 | 128.33745 | 35283 ft | 388 kts | 121° |
| 2026-05-04 02:40 | -31.58640 | 128.39443 | 35278 ft | 388 kts | 121° |
| 2026-05-04 02:41 | -31.60989 | 128.45142 | 35274 ft | 388 kts | 121° |
| 2026-05-04 02:41 | -31.63334 | 128.50842 | 35281 ft | 388 kts | 121° |
| 2026-05-04 02:42 | -31.65677 | 128.56543 | 35279 ft | 388 kts | 121° |
| 2026-05-04 02:42 | -31.68017 | 128.62248 | 35279 ft | 388 kts | 121° |
| 2026-05-04 02:43 | -31.70351 | 128.67948 | 35279 ft | 388 kts | 121° |
| 2026-05-04 02:43 | -31.72687 | 128.73659 | 35275 ft | 388 kts | 121° |
| 2026-05-04 02:44 | -31.75021 | 128.79375 | 35271 ft | 388 kts | 121° |
| 2026-05-04 02:44 | -31.77353 | 128.85098 | 35268 ft | 388 kts | 121° |
| 2026-05-04 02:45 | -31.79683 | 128.90823 | 35272 ft | 389 kts | 120° |
| 2026-05-04 02:45 | -31.82016 | 128.96564 | 35271 ft | 389 kts | 120° |
| 2026-05-04 02:46 | -31.84350 | 129.02316 | 35270 ft | 390 kts | 120° |
| 2026-05-04 02:46 | -31.86684 | 129.08081 | 35277 ft | 391 kts | 120° |
| 2026-05-04 02:47 | -31.89019 | 129.13855 | 35265 ft | 391 kts | 120° |
| 2026-05-04 02:47 | -31.91350 | 129.19631 | 35264 ft | 391 kts | 120° |
| 2026-05-04 02:48 | -31.93678 | 129.25408 | 35266 ft | 391 kts | 120° |
| 2026-05-04 02:48 | -31.96004 | 129.31188 | 35264 ft | 391 kts | 120° |
| 2026-05-04 02:49 | -31.98328 | 129.36973 | 35271 ft | 391 kts | 120° |
| 2026-05-04 02:49 | -32.00649 | 129.42760 | 35261 ft | 391 kts | 120° |
| 2026-05-04 02:50 | -32.02966 | 129.48547 | 35260 ft | 391 kts | 120° |
| 2026-05-04 02:50 | -32.05282 | 129.54341 | 35262 ft | 391 kts | 120° |
| 2026-05-04 02:51 | -32.07595 | 129.60137 | 35265 ft | 391 kts | 120° |
| 2026-05-04 02:51 | -32.09908 | 129.65943 | 35263 ft | 392 kts | 120° |
| 2026-05-04 02:52 | -32.11831 | 129.70777 | 35254 ft | 392 kts | 120° |
| 2026-05-04 02:52 | -32.14142 | 129.76595 | 35253 ft | 392 kts | 120° |
| 2026-05-04 02:53 | -32.16451 | 129.82416 | 35260 ft | 392 kts | 120° |
| 2026-05-04 02:53 | -32.18761 | 129.88250 | 35261 ft | 392 kts | 120° |
| 2026-05-04 02:54 | -32.21069 | 129.94089 | 35250 ft | 393 kts | 120° |
| 2026-05-04 02:54 | -32.23375 | 129.99934 | 35246 ft | 393 kts | 120° |
| 2026-05-04 02:55 | -32.26829 | 130.08706 | 35245 ft | 393 kts | 119° |
| 2026-05-04 02:56 | -32.29132 | 130.14567 | 35250 ft | 393 kts | 119° |
| 2026-05-04 02:56 | -32.31432 | 130.20432 | 35247 ft | 393 kts | 119° |
| 2026-05-04 02:57 | -32.33732 | 130.26304 | 35245 ft | 394 kts | 119° |
| 2026-05-04 02:57 | -32.36030 | 130.32182 | 35238 ft | 394 kts | 119° |
| 2026-05-04 02:58 | -32.38326 | 130.38066 | 35240 ft | 394 kts | 119° |
| 2026-05-04 02:58 | -32.40622 | 130.43957 | 35247 ft | 394 kts | 119° |
| 2026-05-04 02:59 | -32.42914 | 130.49852 | 35235 ft | 395 kts | 119° |
| 2026-05-04 02:59 | -32.45207 | 130.55756 | 35238 ft | 395 kts | 118° |
| 2026-05-04 03:00 | -32.47498 | 130.61667 | 35234 ft | 395 kts | 118° |
| 2026-05-04 03:00 | -32.49788 | 130.67584 | 35238 ft | 395 kts | 118° |
| 2026-05-04 03:01 | -32.52076 | 130.73506 | 35240 ft | 396 kts | 118° |
| 2026-05-04 03:01 | -32.54362 | 130.79434 | 35233 ft | 395 kts | 118° |
| 2026-05-04 03:02 | -32.56643 | 130.85361 | 35231 ft | 395 kts | 118° |
| 2026-05-04 03:02 | -32.58920 | 130.91286 | 35230 ft | 395 kts | 118° |
| 2026-05-04 03:03 | -32.61193 | 130.97210 | 35242 ft | 394 kts | 118° |
| 2026-05-04 03:03 | -32.63462 | 131.03134 | 35228 ft | 395 kts | 118° |
| 2026-05-04 03:04 | -32.65728 | 131.09063 | 35222 ft | 394 kts | 118° |
| 2026-05-04 03:04 | -32.67990 | 131.14989 | 35219 ft | 394 kts | 118° |
| 2026-05-04 03:05 | -32.70251 | 131.20925 | 35230 ft | 395 kts | 118° |
| 2026-05-04 03:05 | -32.72513 | 131.26872 | 35217 ft | 395 kts | 118° |
| 2026-05-04 03:06 | -32.74774 | 131.32827 | 35222 ft | 396 kts | 118° |
| 2026-05-04 03:06 | -32.77037 | 131.38797 | 35219 ft | 397 kts | 118° |
| 2026-05-04 03:07 | -32.79299 | 131.44777 | 35216 ft | 397 kts | 118° |
| 2026-05-04 03:07 | -32.81560 | 131.50765 | 35216 ft | 397 kts | 118° |
| 2026-05-04 03:08 | -32.83820 | 131.56760 | 35210 ft | 397 kts | 117° |
| 2026-05-04 03:08 | -32.86078 | 131.62759 | 35209 ft | 397 kts | 117° |
| 2026-05-04 03:09 | -32.88334 | 131.68765 | 35211 ft | 398 kts | 117° |
| 2026-05-04 03:09 | -32.90586 | 131.74773 | 35215 ft | 398 kts | 117° |
| 2026-05-04 03:10 | -32.92838 | 131.80788 | 35207 ft | 398 kts | 117° |
| 2026-05-04 03:10 | -32.95086 | 131.86806 | 35205 ft | 398 kts | 117° |
| 2026-05-04 03:11 | -32.97331 | 131.92827 | 35207 ft | 398 kts | 117° |
| 2026-05-04 03:11 | -32.99574 | 131.98850 | 35209 ft | 398 kts | 117° |
| 2026-05-04 03:12 | -33.01779 | 132.04899 | 35194 ft | 398 kts | 116° |
| 2026-05-04 03:12 | -33.03939 | 132.10976 | 35195 ft | 398 kts | 116° |
| 2026-05-04 03:13 | -33.06096 | 132.17059 | 35196 ft | 398 kts | 116° |
| 2026-05-04 03:13 | -33.08253 | 132.23136 | 35191 ft | 398 kts | 116° |
| 2026-05-04 03:14 | -33.10414 | 132.29225 | 35199 ft | 399 kts | 116° |
| 2026-05-04 03:14 | -33.12574 | 132.35323 | 35190 ft | 399 kts | 116° |
| 2026-05-04 03:15 | -33.14730 | 132.41420 | 35192 ft | 399 kts | 116° |
| 2026-05-04 03:15 | -33.16884 | 132.47521 | 35191 ft | 399 kts | 116° |
| 2026-05-04 03:16 | -33.19035 | 132.53626 | 35195 ft | 399 kts | 116° |
| 2026-05-04 03:16 | -33.21186 | 132.59743 | 35190 ft | 399 kts | 116° |
| 2026-05-04 03:17 | -33.23333 | 132.65859 | 35184 ft | 400 kts | 115° |
| 2026-05-04 03:17 | -33.25479 | 132.71986 | 35184 ft | 400 kts | 115° |
| 2026-05-04 03:18 | -33.27623 | 132.78118 | 35188 ft | 400 kts | 115° |
| 2026-05-04 03:18 | -33.29764 | 132.84252 | 35186 ft | 402 kts | 115° |
| 2026-05-04 03:19 | -33.31969 | 132.90571 | 35354 ft | 422 kts | 115° |
| 2026-05-04 03:19 | -33.33112 | 132.93851 | 35442 ft | 433 kts | 115° |
| 2026-05-04 03:19 | -33.34280 | 132.97208 | 35561 ft | 441 kts | 115° |
| 2026-05-04 03:19 | -33.35466 | 133.00625 | 35750 ft | 447 kts | 115° |
| 2026-05-04 03:20 | -33.36660 | 133.04072 | 36068 ft | 450 kts | 115° |
| 2026-05-04 03:20 | -33.37857 | 133.07534 | 36423 ft | 451 kts | 115° |
| 2026-05-04 03:20 | -33.39055 | 133.11002 | 36830 ft | 451 kts | 115° |
| 2026-05-04 03:20 | -33.40252 | 133.14467 | 37222 ft | 451 kts | 115° |
| 2026-05-04 03:21 | -33.41449 | 133.17937 | 37570 ft | 452 kts | 115° |
| 2026-05-04 03:21 | -33.42649 | 133.21417 | 37908 ft | 453 kts | 115° |
| 2026-05-04 03:21 | -33.43850 | 133.24904 | 38272 ft | 453 kts | 115° |
| 2026-05-04 03:21 | -33.45053 | 133.28400 | 38592 ft | 455 kts | 115° |
| 2026-05-04 03:22 | -33.46255 | 133.31898 | 38942 ft | 454 kts | 115° |
| 2026-05-04 03:22 | -33.47456 | 133.35397 | 39237 ft | 454 kts | 115° |
| 2026-05-04 03:22 | -33.48656 | 133.38896 | 39482 ft | 455 kts | 115° |
| 2026-05-04 03:22 | -33.49860 | 133.42407 | 39712 ft | 456 kts | 115° |
| 2026-05-04 03:23 | -33.51065 | 133.45929 | 39942 ft | 457 kts | 115° |
| 2026-05-04 03:23 | -33.52272 | 133.49460 | 40149 ft | 459 kts | 115° |
| 2026-05-04 03:23 | -33.53482 | 133.53001 | 40420 ft | 459 kts | 114° |
| 2026-05-04 03:23 | -33.54687 | 133.56537 | 40718 ft | 458 kts | 114° |
| 2026-05-04 03:24 | -33.55893 | 133.60078 | 40948 ft | 459 kts | 114° |
| 2026-05-04 03:24 | -33.57099 | 133.63619 | 41135 ft | 460 kts | 114° |
| 2026-05-04 03:24 | -33.58313 | 133.67191 | 41157 ft | 465 kts | 114° |
| 2026-05-04 03:25 | -33.60758 | 133.74393 | 41169 ft | 466 kts | 114° |
| 2026-05-04 03:25 | -33.63182 | 133.81557 | 41154 ft | 459 kts | 114° |
| 2026-05-04 03:26 | -33.65572 | 133.88633 | 41165 ft | 458 kts | 114° |
| 2026-05-04 03:26 | -33.67961 | 133.95719 | 41169 ft | 458 kts | 114° |
| 2026-05-04 03:27 | -33.70349 | 134.02819 | 41162 ft | 459 kts | 114° |
| 2026-05-04 03:27 | -33.72738 | 134.09936 | 41156 ft | 460 kts | 114° |
| 2026-05-04 03:28 | -33.75126 | 134.17069 | 41160 ft | 461 kts | 114° |
| 2026-05-04 03:28 | -33.77515 | 134.24220 | 41169 ft | 462 kts | 114° |
| 2026-05-04 03:29 | -33.79906 | 134.31395 | 41158 ft | 463 kts | 114° |
| 2026-05-04 03:29 | -33.82300 | 134.38594 | 41151 ft | 464 kts | 114° |
| 2026-05-04 03:30 | -33.84691 | 134.45802 | 41140 ft | 465 kts | 114° |
| 2026-05-04 03:30 | -33.87082 | 134.53028 | 41151 ft | 465 kts | 114° |
| 2026-05-04 03:31 | -33.89457 | 134.60220 | 41147 ft | 466 kts | 114° |
| 2026-05-04 03:31 | -33.91845 | 134.67468 | 41134 ft | 466 kts | 114° |
| 2026-05-04 03:32 | -33.94228 | 134.74720 | 41150 ft | 466 kts | 113° |
| 2026-05-04 03:32 | -33.96608 | 134.81979 | 41140 ft | 466 kts | 113° |
| 2026-05-04 03:33 | -33.98984 | 134.89242 | 41135 ft | 466 kts | 113° |
| 2026-05-04 03:33 | -34.01355 | 134.96507 | 41150 ft | 465 kts | 113° |
| 2026-05-04 03:34 | -34.03719 | 135.03768 | 41134 ft | 465 kts | 113° |
| 2026-05-04 03:34 | -34.05696 | 135.09855 | 41135 ft | 465 kts | 113° |
| 2026-05-04 03:35 | -34.08049 | 135.17114 | 41134 ft | 465 kts | 113° |
| 2026-05-04 03:35 | -34.10397 | 135.24375 | 41128 ft | 464 kts | 113° |
| 2026-05-04 03:36 | -34.12739 | 135.31632 | 41108 ft | 464 kts | 113° |
| 2026-05-04 03:36 | -34.14942 | 135.38952 | 41123 ft | 464 kts | 110° |
| 2026-05-04 03:37 | -34.16911 | 135.46376 | 41124 ft | 465 kts | 109° |
| 2026-05-04 03:37 | -34.18863 | 135.53816 | 41118 ft | 465 kts | 109° |
| 2026-05-04 03:38 | -34.20838 | 135.61251 | 41124 ft | 465 kts | 109° |
| 2026-05-04 03:38 | -34.22826 | 135.68687 | 41115 ft | 465 kts | 109° |
| 2026-05-04 03:39 | -34.24813 | 135.76130 | 41105 ft | 466 kts | 109° |
| 2026-05-04 03:39 | -34.26799 | 135.83588 | 41119 ft | 466 kts | 109° |
| 2026-05-04 03:40 | -34.28781 | 135.91057 | 41103 ft | 467 kts | 109° |
| 2026-05-04 03:40 | -34.30762 | 135.98544 | 41110 ft | 467 kts | 109° |
| 2026-05-04 03:41 | -34.32740 | 136.06039 | 41093 ft | 468 kts | 109° |
| 2026-05-04 03:41 | -34.34714 | 136.13540 | 41091 ft | 468 kts | 109° |
| 2026-05-04 03:42 | -34.36685 | 136.21050 | 41094 ft | 468 kts | 109° |
| 2026-05-04 03:42 | -34.38652 | 136.28570 | 41094 ft | 469 kts | 109° |
| 2026-05-04 03:43 | -34.40615 | 136.36091 | 41086 ft | 469 kts | 109° |
| 2026-05-04 03:43 | -34.42574 | 136.43620 | 41084 ft | 469 kts | 109° |
| 2026-05-04 03:44 | -34.44519 | 136.51114 | 41095 ft | 470 kts | 109° |
| 2026-05-04 03:44 | -34.46473 | 136.58669 | 41094 ft | 470 kts | 109° |
| 2026-05-04 03:45 | -34.48425 | 136.66233 | 41087 ft | 471 kts | 109° |
| 2026-05-04 03:45 | -34.50375 | 136.73813 | 41088 ft | 471 kts | 109° |
| 2026-05-04 03:46 | -34.52321 | 136.81397 | 41089 ft | 472 kts | 108° |
| 2026-05-04 03:46 | -34.54263 | 136.88998 | 41085 ft | 472 kts | 108° |
| 2026-05-04 03:47 | -34.56203 | 136.96612 | 41085 ft | 472 kts | 108° |
| 2026-05-04 03:47 | -34.58140 | 137.04234 | 41085 ft | 473 kts | 108° |
| 2026-05-04 03:48 | -34.60073 | 137.11868 | 41082 ft | 473 kts | 108° |
| 2026-05-04 03:48 | -34.62003 | 137.19507 | 41082 ft | 474 kts | 108° |
| 2026-05-04 03:49 | -34.63929 | 137.27157 | 41079 ft | 474 kts | 108° |
| 2026-05-04 03:49 | -34.65850 | 137.34807 | 41076 ft | 474 kts | 108° |
| 2026-05-04 03:50 | -34.67766 | 137.42462 | 41074 ft | 474 kts | 108° |
| 2026-05-04 03:50 | -34.69678 | 137.50119 | 41075 ft | 474 kts | 108° |
| 2026-05-04 03:51 | -34.71586 | 137.57787 | 41075 ft | 474 kts | 108° |
| 2026-05-04 03:51 | -34.73492 | 137.65466 | 41072 ft | 475 kts | 108° |
| 2026-05-04 03:52 | -34.75398 | 137.73165 | 41064 ft | 475 kts | 108° |
| 2026-05-04 03:52 | -34.77298 | 137.80866 | 41068 ft | 476 kts | 108° |
| 2026-05-04 03:53 | -34.79196 | 137.88579 | 41059 ft | 476 kts | 108° |
| 2026-05-04 03:53 | -34.81090 | 137.96302 | 41060 ft | 476 kts | 108° |
| 2026-05-04 03:54 | -34.82968 | 138.03983 | 41066 ft | 477 kts | 108° |
| 2026-05-04 03:54 | -34.84856 | 138.11726 | 41056 ft | 477 kts | 108° |
| 2026-05-04 03:55 | -34.86740 | 138.19479 | 41041 ft | 478 kts | 108° |
| 2026-05-04 03:55 | -34.88633 | 138.27291 | 41035 ft | 478 kts | 107° |
| 2026-05-04 03:56 | -34.90511 | 138.35066 | 41033 ft | 478 kts | 107° |
| 2026-05-04 03:56 | -34.92384 | 138.42846 | 41023 ft | 479 kts | 107° |
| 2026-05-04 03:57 | -34.94256 | 138.50642 | 41014 ft | 479 kts | 107° |
| 2026-05-04 03:57 | -34.96354 | 138.58340 | 41026 ft | 479 kts | 112° |
| 2026-05-04 03:58 | -34.99916 | 138.69737 | 41033 ft | 481 kts | 112° |
| 2026-05-04 03:58 | -35.02274 | 138.77377 | 41038 ft | 482 kts | 112° |
| 2026-05-04 03:59 | -35.04599 | 138.85042 | 41041 ft | 482 kts | 111° |
| 2026-05-04 03:59 | -35.06917 | 138.92733 | 41036 ft | 483 kts | 112° |
| 2026-05-04 04:00 | -35.09234 | 139.00435 | 41029 ft | 484 kts | 111° |
| 2026-05-04 04:00 | -35.11551 | 139.08155 | 41030 ft | 484 kts | 111° |
| 2026-05-04 04:01 | -35.13865 | 139.15884 | 41029 ft | 485 kts | 111° |
| 2026-05-04 04:01 | -35.16179 | 139.23630 | 41028 ft | 486 kts | 111° |
| 2026-05-04 04:02 | -35.18475 | 139.31343 | 41017 ft | 486 kts | 111° |
| 2026-05-04 04:02 | -35.20797 | 139.39163 | 41020 ft | 486 kts | 111° |
| 2026-05-04 04:03 | -35.23101 | 139.46937 | 41017 ft | 486 kts | 111° |
| 2026-05-04 04:03 | -35.25517 | 139.54653 | 41008 ft | 485 kts | 115° |
| 2026-05-04 04:04 | -35.28306 | 139.62112 | 41009 ft | 485 kts | 117° |
| 2026-05-04 04:04 | -35.31176 | 139.69571 | 41012 ft | 485 kts | 117° |
| 2026-05-04 04:05 | -35.34005 | 139.77068 | 41010 ft | 485 kts | 117° |
| 2026-05-04 04:05 | -35.36798 | 139.84590 | 41004 ft | 485 kts | 116° |
| 2026-05-04 04:06 | -35.39575 | 139.92119 | 40996 ft | 485 kts | 116° |
| 2026-05-04 04:06 | -35.42351 | 139.99660 | 40995 ft | 485 kts | 116° |
| 2026-05-04 04:07 | -35.45125 | 140.07207 | 40996 ft | 486 kts | 116° |
| 2026-05-04 04:07 | -35.47896 | 140.14764 | 40991 ft | 486 kts | 116° |
| 2026-05-04 04:08 | -35.50666 | 140.22335 | 41002 ft | 486 kts | 116° |
| 2026-05-04 04:08 | -35.53433 | 140.29914 | 40992 ft | 487 kts | 116° |
| 2026-05-04 04:09 | -35.56196 | 140.37503 | 40983 ft | 487 kts | 116° |
| 2026-05-04 04:09 | -35.58954 | 140.45096 | 40981 ft | 487 kts | 116° |
| 2026-05-04 04:10 | -35.61707 | 140.52696 | 40982 ft | 487 kts | 116° |
| 2026-05-04 04:10 | -35.64459 | 140.60307 | 40981 ft | 487 kts | 116° |
| 2026-05-04 04:11 | -35.67205 | 140.67923 | 40984 ft | 487 kts | 115° |
| 2026-05-04 04:11 | -35.69946 | 140.75543 | 40974 ft | 487 kts | 115° |
| 2026-05-04 04:12 | -35.72683 | 140.83171 | 40975 ft | 487 kts | 115° |
| 2026-05-04 04:12 | -35.75418 | 140.90810 | 40981 ft | 487 kts | 115° |
| 2026-05-04 04:13 | -35.78145 | 140.98448 | 40966 ft | 487 kts | 115° |
| 2026-05-04 04:13 | -35.80867 | 141.06090 | 40968 ft | 487 kts | 115° |
| 2026-05-04 04:14 | -35.83583 | 141.13734 | 40963 ft | 487 kts | 115° |
| 2026-05-04 04:14 | -35.86291 | 141.21373 | 40963 ft | 486 kts | 115° |
| 2026-05-04 04:15 | -35.88992 | 141.29013 | 40958 ft | 486 kts | 115° |
| 2026-05-04 04:15 | -35.91686 | 141.36651 | 40965 ft | 485 kts | 114° |
| 2026-05-04 04:16 | -35.93922 | 141.43003 | 40950 ft | 485 kts | 114° |
| 2026-05-04 04:16 | -35.96605 | 141.50645 | 40950 ft | 485 kts | 114° |
| 2026-05-04 04:17 | -35.99279 | 141.58280 | 40950 ft | 485 kts | 114° |
| 2026-05-04 04:17 | -36.01948 | 141.65919 | 40944 ft | 484 kts | 114° |
| 2026-05-04 04:18 | -36.04611 | 141.73561 | 40942 ft | 484 kts | 114° |
| 2026-05-04 04:18 | -36.07267 | 141.81204 | 40954 ft | 484 kts | 114° |
| 2026-05-04 04:19 | -36.09917 | 141.88845 | 40944 ft | 484 kts | 114° |
| 2026-05-04 04:19 | -36.12563 | 141.96497 | 40938 ft | 484 kts | 114° |
| 2026-05-04 04:20 | -36.15207 | 142.04160 | 40932 ft | 484 kts | 113° |
| 2026-05-04 04:20 | -36.17848 | 142.11835 | 40927 ft | 485 kts | 113° |
| 2026-05-04 04:21 | -36.20477 | 142.19523 | 40931 ft | 485 kts | 113° |
| 2026-05-04 04:21 | -36.23104 | 142.27226 | 40929 ft | 486 kts | 113° |
| 2026-05-04 04:22 | -36.25730 | 142.34945 | 40930 ft | 486 kts | 112° |
| 2026-05-04 04:22 | -36.28350 | 142.42664 | 40926 ft | 487 kts | 112° |
| 2026-05-04 04:23 | -36.30970 | 142.50403 | 40923 ft | 487 kts | 112° |
| 2026-05-04 04:23 | -36.33590 | 142.58160 | 40927 ft | 491 kts | 112° |
| 2026-05-04 04:24 | -36.36253 | 142.66071 | 40936 ft | 503 kts | 112° |
| 2026-05-04 04:24 | -36.38979 | 142.74188 | 40936 ft | 515 kts | 112° |
| 2026-05-04 04:25 | -36.41757 | 142.82478 | 40931 ft | 525 kts | 112° |
| 2026-05-04 04:25 | -36.44580 | 142.90922 | 40922 ft | 532 kts | 112° |
| 2026-05-04 04:26 | -36.47421 | 142.99417 | 40904 ft | 533 kts | 112° |
| 2026-05-04 04:26 | -36.50258 | 143.07922 | 40905 ft | 533 kts | 111° |
| 2026-05-04 04:27 | -36.53093 | 143.16449 | 40917 ft | 534 kts | 111° |
| 2026-05-04 04:27 | -36.55922 | 143.24983 | 40903 ft | 533 kts | 111° |
| 2026-05-04 04:28 | -36.58741 | 143.33515 | 40909 ft | 533 kts | 111° |
| 2026-05-04 04:28 | -36.61551 | 143.42044 | 40913 ft | 532 kts | 111° |
| 2026-05-04 04:29 | -36.64351 | 143.50565 | 40920 ft | 532 kts | 111° |
| 2026-05-04 04:29 | -36.67147 | 143.59099 | 40727 ft | 533 kts | 111° |
| 2026-05-04 04:30 | -36.68540 | 143.63360 | 40234 ft | 529 kts | 111° |
| 2026-05-04 04:30 | -36.69932 | 143.67624 | 39447 ft | 531 kts | 110° |
| 2026-05-04 04:30 | -36.71320 | 143.71885 | 38737 ft | 531 kts | 110° |
| 2026-05-04 04:30 | -36.72710 | 143.76155 | 37863 ft | 532 kts | 110° |
| 2026-05-04 04:31 | -36.74098 | 143.80425 | 37059 ft | 531 kts | 110° |
| 2026-05-04 04:31 | -36.75461 | 143.84626 | 36277 ft | 530 kts | 110° |
| 2026-05-04 04:31 | -36.76841 | 143.88884 | 35447 ft | 530 kts | 110° |
| 2026-05-04 04:31 | -36.78223 | 143.93156 | 34499 ft | 533 kts | 109° |
| 2026-05-04 04:32 | -36.79611 | 143.97454 | 33432 ft | 536 kts | 109° |
| 2026-05-04 04:32 | -36.81006 | 144.01778 | 32300 ft | 537 kts | 109° |
| 2026-05-04 04:32 | -36.82399 | 144.06104 | 31202 ft | 537 kts | 109° |
| 2026-05-04 04:32 | -36.83790 | 144.10425 | 30014 ft | 538 kts | 108° |
| 2026-05-04 04:33 | -36.85184 | 144.14765 | 28561 ft | 538 kts | 109° |
| 2026-05-04 04:33 | -36.86572 | 144.19096 | 27221 ft | 535 kts | 109° |
| 2026-05-04 04:33 | -36.87947 | 144.23390 | 25909 ft | 531 kts | 109° |
| 2026-05-04 04:33 | -36.89313 | 144.27660 | 24709 ft | 527 kts | 109° |
| 2026-05-04 04:34 | -36.90658 | 144.31868 | 23818 ft | 515 kts | 109° |
| 2026-05-04 04:34 | -36.92022 | 144.35970 | 22677 ft | 504 kts | 113° |
| 2026-05-04 04:34 | -36.93686 | 144.39730 | 21407 ft | 486 kts | 122° |
| 2026-05-04 04:34 | -36.95700 | 144.43011 | 20356 ft | 467 kts | 131° |
| 2026-05-04 04:35 | -36.97825 | 144.45985 | 19368 ft | 451 kts | 132° |
| 2026-05-04 04:35 | -36.99889 | 144.48870 | 18445 ft | 441 kts | 132° |
| 2026-05-04 04:35 | -37.01908 | 144.51719 | 17422 ft | 434 kts | 132° |
| 2026-05-04 04:35 | -37.03907 | 144.54570 | 16427 ft | 440 kts | 131° |
| 2026-05-04 04:36 | -37.05935 | 144.57484 | 15442 ft | 445 kts | 131° |
| 2026-05-04 04:36 | -37.07943 | 144.60381 | 14473 ft | 434 kts | 131° |
| 2026-05-04 04:36 | -37.09868 | 144.63167 | 13600 ft | 413 kts | 132° |
| 2026-05-04 04:36 | -37.11723 | 144.65850 | 12647 ft | 403 kts | 132° |
| 2026-05-04 04:37 | -37.17692 | 144.73173 | 10672 ft | 396 kts | 156° |
| 2026-05-04 04:37 | -37.20208 | 144.74232 | 10495 ft | 369 kts | 171° |
| 2026-05-04 04:38 | -37.22657 | 144.74856 | 10335 ft | 350 kts | 173° |
| 2026-05-04 04:38 | -37.24990 | 144.75416 | 10185 ft | 334 kts | 173° |
| 2026-05-04 04:38 | -37.27220 | 144.75968 | 10037 ft | 320 kts | 173° |
| 2026-05-04 04:38 | -37.29349 | 144.76516 | 9917 ft | 306 kts | 173° |
| 2026-05-04 04:39 | -37.31455 | 144.77065 | 9368 ft | 309 kts | 173° |
| 2026-05-04 04:39 | -37.33555 | 144.77608 | 8979 ft | 306 kts | 174° |
| 2026-05-04 04:39 | -37.35625 | 144.78011 | 8732 ft | 298 kts | 178° |
| 2026-05-04 04:39 | -37.37673 | 144.78348 | 8512 ft | 297 kts | 178° |
| 2026-05-04 04:40 | -37.39725 | 144.78688 | 8290 ft | 298 kts | 178° |
| 2026-05-04 04:40 | -37.41784 | 144.79041 | 8056 ft | 299 kts | 177° |
| 2026-05-04 04:40 | -37.43844 | 144.79402 | 7837 ft | 299 kts | 177° |
| 2026-05-04 04:40 | -37.45905 | 144.79678 | 7598 ft | 295 kts | 188° |
| 2026-05-04 04:41 | -37.47853 | 144.79127 | 7405 ft | 283 kts | 207° |
| 2026-05-04 04:41 | -37.49661 | 144.78264 | 7197 ft | 282 kts | 208° |
| 2026-05-04 04:41 | -37.51489 | 144.77365 | 6980 ft | 282 kts | 208° |
| 2026-05-04 04:41 | -37.53317 | 144.76478 | 6776 ft | 281 kts | 208° |
| 2026-05-04 04:42 | -37.55148 | 144.75601 | 6564 ft | 281 kts | 208° |
| 2026-05-04 04:42 | -37.56968 | 144.74735 | 6371 ft | 279 kts | 208° |
| 2026-05-04 04:42 | -37.58793 | 144.73896 | 6144 ft | 281 kts | 203° |
| 2026-05-04 04:42 | -37.60755 | 144.73538 | 5914 ft | 287 kts | 189° |
| 2026-05-04 04:43 | -37.62748 | 144.73448 | 5714 ft | 286 kts | 187° |
| 2026-05-04 04:43 | -37.64739 | 144.73366 | 5498 ft | 286 kts | 187° |
| 2026-05-04 04:43 | -37.66733 | 144.73254 | 5285 ft | 287 kts | 188° |
| 2026-05-04 04:43 | -37.68727 | 144.73123 | 5074 ft | 287 kts | 188° |
| 2026-05-04 04:44 | -37.70717 | 144.72985 | 4867 ft | 287 kts | 187° |
| 2026-05-04 04:44 | -37.72711 | 144.72925 | 4652 ft | 286 kts | 185° |
| 2026-05-04 04:44 | -37.74680 | 144.72909 | 4419 ft | 279 kts | 185° |
| 2026-05-04 04:44 | -37.76597 | 144.72899 | 4204 ft | 272 kts | 185° |
| 2026-05-04 04:45 | -37.78466 | 144.72881 | 4006 ft | 266 kts | 185° |
| 2026-05-04 04:45 | -37.80323 | 144.72906 | 3801 ft | 270 kts | 176° |
| 2026-05-04 04:45 | -37.82071 | 144.73792 | 3594 ft | 276 kts | 141° |
| 2026-05-04 04:47 | -37.82885 | 144.85462 | 2526 ft | 196 kts | 30° |
| 2026-05-04 04:47 | -37.81781 | 144.86116 | 2484 ft | 159 kts | 2° |
| 2026-05-04 04:47 | -37.80750 | 144.86139 | 2484 ft | 141 kts | 354° |
| 2026-05-04 04:47 | -37.79761 | 144.86094 | 2500 ft | 142 kts | 354° |
| 2026-05-04 04:48 | -37.78782 | 144.85986 | 2384 ft | 141 kts | 351° |
| 2026-05-04 04:49 | -37.75423 | 144.85378 | 1728 ft | 100 kts | 349° |
| 2026-05-04 04:49 | -37.74746 | 144.85255 | 1602 ft | 98 kts | 349° |
| 2026-05-04 04:49 | -37.74072 | 144.85133 | 1489 ft | 98 kts | 351° |
| 2026-05-04 04:49 | -37.73397 | 144.85007 | 1400 ft | 97 kts | 352° |
| 2026-05-04 04:50 | -37.72692 | 144.84887 | 1259 ft | 106 kts | 351° |
| 2026-05-04 04:50 | -37.71969 | 144.84751 | 1104 ft | 105 kts | 350° |
| 2026-05-04 04:50 | -37.71237 | 144.84591 | 1000 ft | 107 kts | 351° |
| 2026-05-04 04:50 | -37.70498 | 144.84433 | 831 ft | 108 kts | 354° |
| 2026-05-04 04:51 | -37.69768 | 144.84320 | 641 ft | 106 kts | 354° |
| 2026-05-04 04:51 | -37.69053 | 144.84173 | 479 ft | 103 kts | 356° |
| 2026-05-04 04:51 | -37.68365 | 144.84055 | 363 ft | 97 kts | 356° |
| 2026-05-04 04:51 | -37.67791 | 144.83953 | 360 ft | 66 kts | 352° |
| 2026-05-04 04:52 | -37.67457 | 144.83893 | 371 ft | 31 kts | 352° |
| 2026-05-04 04:52 | -37.67310 | 144.83868 | 374 ft | 19 kts | 352° |
| 2026-05-04 04:52 | -37.67191 | 144.83848 | 379 ft | 16 kts | 352° |
| 2026-05-04 04:52 | -37.67081 | 144.83835 | 382 ft | 16 kts | 1° |
| 2026-05-04 04:53 | -37.66976 | 144.83850 | 386 ft | 15 kts | 14° |
| 2026-05-04 04:53 | -37.66847 | 144.83909 | 390 ft | 26 kts | 21° |
| 2026-05-04 04:53 | -37.66722 | 144.84040 | 394 ft | 24 kts | 74° |
| 2026-05-04 04:53 | -37.66698 | 144.84240 | 395 ft | 23 kts | 82° |
| 2026-05-04 04:54 | -37.66674 | 144.84433 | 397 ft | 22 kts | 82° |
| 2026-05-04 04:54 | -37.66654 | 144.84610 | 399 ft | 13 kts | 82° |
| 2026-05-04 04:54 | -37.66638 | 144.84676 | 399 ft | 5 kts | 18° |
| 2026-05-04 04:54 | -37.66608 | 144.84670 | 400 ft | 3 kts | 345° |
| 2026-05-04 04:55 | -37.66589 | 144.84664 | 402 ft | 2 kts | 347° |
| 2026-05-04 04:55 | -37.66577 | 144.84661 | 401 ft | 1 kts | 347° |
| 2026-05-04 04:55 | -37.66574 | 144.84660 | 403 ft | 0 kts | 347° |